<?xml version="1.0" encoding="UTF-8" standalone="no" ?>
<gpx xmlns="http://www.topografix.com/GPX/1/1" xmlns:xsi="http://www.w3.org/2001/XMLSchema-instance" xsi:schemaLocation="http://www.topografix.com/GPX/1/1 http://www.topografix.com/GPX/1/1/gpx.xsd" version="1.1" creator="VisuGPX - https://www.visugpx.com">
  <metadata>
    <name>Nimes le Vieux</name>
    <desc><![CDATA[Nimes le Vieux, rando a travers le chaos de blocs]]></desc>
  </metadata>
  <trk>
    <name><![CDATA[Nîmes Le Vieux]]></name>
    <desc><![CDATA[]]></desc>
    <trkseg>
      <trkpt lat="44.22441" lon="3.51399">
        <ele>1071.7</ele>
        <time>2015-08-22T15:02:55.864Z</time>
      </trkpt>
      <trkpt lat="44.22441" lon="3.51399">
        <ele>1071.7</ele>
        <time>2015-08-22T15:03:08.621Z</time>
      </trkpt>
      <trkpt lat="44.22441" lon="3.51397">
        <ele>1073.7</ele>
        <time>2015-08-22T15:03:09.573Z</time>
      </trkpt>
      <trkpt lat="44.2244" lon="3.51395">
        <ele>1078.6</ele>
        <time>2015-08-22T15:03:24.534Z</time>
      </trkpt>
      <trkpt lat="44.22441" lon="3.51392">
        <ele>1077.3</ele>
        <time>2015-08-22T15:03:25.490Z</time>
      </trkpt>
      <trkpt lat="44.22449" lon="3.51388">
        <ele>1075.6</ele>
        <time>2015-08-22T15:03:35.532Z</time>
      </trkpt>
      <trkpt lat="44.2245" lon="3.51388">
        <ele>1075.7</ele>
        <time>2015-08-22T15:03:36.491Z</time>
      </trkpt>
      <trkpt lat="44.22457" lon="3.51385">
        <ele>1077.1</ele>
        <time>2015-08-22T15:03:44.531Z</time>
      </trkpt>
      <trkpt lat="44.22458" lon="3.51384">
        <ele>1077.3</ele>
        <time>2015-08-22T15:03:45.491Z</time>
      </trkpt>
      <trkpt lat="44.22466" lon="3.51381">
        <ele>1077.9</ele>
        <time>2015-08-22T15:03:52.579Z</time>
      </trkpt>
      <trkpt lat="44.22467" lon="3.5138">
        <ele>1077.9</ele>
        <time>2015-08-22T15:03:53.491Z</time>
      </trkpt>
      <trkpt lat="44.22476" lon="3.51377">
        <ele>1078.6</ele>
        <time>2015-08-22T15:04:00.531Z</time>
      </trkpt>
      <trkpt lat="44.22477" lon="3.51376">
        <ele>1078.7</ele>
        <time>2015-08-22T15:04:01.493Z</time>
      </trkpt>
      <trkpt lat="44.22485" lon="3.51372">
        <ele>1080</ele>
        <time>2015-08-22T15:04:09.530Z</time>
      </trkpt>
      <trkpt lat="44.22485" lon="3.51372">
        <ele>1079.9</ele>
        <time>2015-08-22T15:04:10.491Z</time>
      </trkpt>
      <trkpt lat="44.22493" lon="3.51368">
        <ele>1085.7</ele>
        <time>2015-08-22T15:04:20.953Z</time>
      </trkpt>
      <trkpt lat="44.22494" lon="3.51367">
        <ele>1085.7</ele>
        <time>2015-08-22T15:04:21.494Z</time>
      </trkpt>
      <trkpt lat="44.22503" lon="3.51367">
        <ele>1086.8</ele>
        <time>2015-08-22T15:04:27.561Z</time>
      </trkpt>
      <trkpt lat="44.22504" lon="3.51367">
        <ele>1086.9</ele>
        <time>2015-08-22T15:04:28.494Z</time>
      </trkpt>
      <trkpt lat="44.22513" lon="3.51367">
        <ele>1087</ele>
        <time>2015-08-22T15:04:34.541Z</time>
      </trkpt>
      <trkpt lat="44.22514" lon="3.51367">
        <ele>1087.1</ele>
        <time>2015-08-22T15:04:35.494Z</time>
      </trkpt>
      <trkpt lat="44.22523" lon="3.51367">
        <ele>1087.1</ele>
        <time>2015-08-22T15:04:42.524Z</time>
      </trkpt>
      <trkpt lat="44.22524" lon="3.51368">
        <ele>1087.1</ele>
        <time>2015-08-22T15:04:43.499Z</time>
      </trkpt>
      <trkpt lat="44.22531" lon="3.51361">
        <ele>1088.2</ele>
        <time>2015-08-22T15:04:54.532Z</time>
      </trkpt>
      <trkpt lat="44.22531" lon="3.5136">
        <ele>1088.4</ele>
        <time>2015-08-22T15:04:55.492Z</time>
      </trkpt>
      <trkpt lat="44.22533" lon="3.51349">
        <ele>1089.1</ele>
        <time>2015-08-22T15:05:04.534Z</time>
      </trkpt>
      <trkpt lat="44.22534" lon="3.51348">
        <ele>1089.3</ele>
        <time>2015-08-22T15:05:05.489Z</time>
      </trkpt>
      <trkpt lat="44.22539" lon="3.51338">
        <ele>1090</ele>
        <time>2015-08-22T15:05:12.524Z</time>
      </trkpt>
      <trkpt lat="44.2254" lon="3.51336">
        <ele>1090.1</ele>
        <time>2015-08-22T15:05:13.491Z</time>
      </trkpt>
      <trkpt lat="44.22545" lon="3.51327">
        <ele>1090.7</ele>
        <time>2015-08-22T15:05:20.529Z</time>
      </trkpt>
      <trkpt lat="44.22546" lon="3.51326">
        <ele>1090.8</ele>
        <time>2015-08-22T15:05:21.491Z</time>
      </trkpt>
      <trkpt lat="44.22552" lon="3.51319">
        <ele>1091.6</ele>
        <time>2015-08-22T15:05:28.554Z</time>
      </trkpt>
      <trkpt lat="44.22553" lon="3.51318">
        <ele>1091.7</ele>
        <time>2015-08-22T15:05:29.489Z</time>
      </trkpt>
      <trkpt lat="44.2256" lon="3.5131">
        <ele>1092.2</ele>
        <time>2015-08-22T15:05:36.529Z</time>
      </trkpt>
      <trkpt lat="44.22561" lon="3.51309">
        <ele>1092.1</ele>
        <time>2015-08-22T15:05:37.493Z</time>
      </trkpt>
      <trkpt lat="44.22566" lon="3.513">
        <ele>1089.3</ele>
        <time>2015-08-22T15:06:06.532Z</time>
      </trkpt>
      <trkpt lat="44.22566" lon="3.51299">
        <ele>1089.3</ele>
        <time>2015-08-22T15:06:07.496Z</time>
      </trkpt>
      <trkpt lat="44.22566" lon="3.51286">
        <ele>1089.3</ele>
        <time>2015-08-22T15:06:14.527Z</time>
      </trkpt>
      <trkpt lat="44.22566" lon="3.51285">
        <ele>1089.3</ele>
        <time>2015-08-22T15:06:15.491Z</time>
      </trkpt>
      <trkpt lat="44.2256" lon="3.51275">
        <ele>1089.2</ele>
        <time>2015-08-22T15:06:22.537Z</time>
      </trkpt>
      <trkpt lat="44.2256" lon="3.51274">
        <ele>1089.2</ele>
        <time>2015-08-22T15:06:23.491Z</time>
      </trkpt>
      <trkpt lat="44.22553" lon="3.51266">
        <ele>1089.4</ele>
        <time>2015-08-22T15:06:30.530Z</time>
      </trkpt>
      <trkpt lat="44.22552" lon="3.51265">
        <ele>1089.2</ele>
        <time>2015-08-22T15:06:31.493Z</time>
      </trkpt>
      <trkpt lat="44.22546" lon="3.51257">
        <ele>1088.6</ele>
        <time>2015-08-22T15:06:37.559Z</time>
      </trkpt>
      <trkpt lat="44.22545" lon="3.51255">
        <ele>1088.6</ele>
        <time>2015-08-22T15:06:38.490Z</time>
      </trkpt>
      <trkpt lat="44.22541" lon="3.51244">
        <ele>1088.5</ele>
        <time>2015-08-22T15:06:45.986Z</time>
      </trkpt>
      <trkpt lat="44.22541" lon="3.51242">
        <ele>1088.5</ele>
        <time>2015-08-22T15:06:46.494Z</time>
      </trkpt>
      <trkpt lat="44.22538" lon="3.51232">
        <ele>1088.6</ele>
        <time>2015-08-22T15:06:52.528Z</time>
      </trkpt>
      <trkpt lat="44.22538" lon="3.5123">
        <ele>1088.8</ele>
        <time>2015-08-22T15:06:53.501Z</time>
      </trkpt>
      <trkpt lat="44.22536" lon="3.51218">
        <ele>1089</ele>
        <time>2015-08-22T15:07:00.523Z</time>
      </trkpt>
      <trkpt lat="44.22536" lon="3.51216">
        <ele>1088.9</ele>
        <time>2015-08-22T15:07:01.490Z</time>
      </trkpt>
      <trkpt lat="44.22535" lon="3.51204">
        <ele>1089.2</ele>
        <time>2015-08-22T15:07:08.532Z</time>
      </trkpt>
      <trkpt lat="44.22535" lon="3.51203">
        <ele>1089.2</ele>
        <time>2015-08-22T15:07:09.520Z</time>
      </trkpt>
      <trkpt lat="44.22533" lon="3.51192">
        <ele>1089.5</ele>
        <time>2015-08-22T15:07:17.524Z</time>
      </trkpt>
      <trkpt lat="44.22533" lon="3.5119">
        <ele>1089.5</ele>
        <time>2015-08-22T15:07:18.489Z</time>
      </trkpt>
      <trkpt lat="44.22532" lon="3.51178">
        <ele>1089.9</ele>
        <time>2015-08-22T15:07:26.571Z</time>
      </trkpt>
      <trkpt lat="44.22533" lon="3.51177">
        <ele>1090</ele>
        <time>2015-08-22T15:07:27.501Z</time>
      </trkpt>
      <trkpt lat="44.22535" lon="3.51165">
        <ele>1090.6</ele>
        <time>2015-08-22T15:07:37.531Z</time>
      </trkpt>
      <trkpt lat="44.22535" lon="3.51164">
        <ele>1090.8</ele>
        <time>2015-08-22T15:07:38.492Z</time>
      </trkpt>
      <trkpt lat="44.22536" lon="3.51152">
        <ele>1092.2</ele>
        <time>2015-08-22T15:07:45.550Z</time>
      </trkpt>
      <trkpt lat="44.22537" lon="3.5115">
        <ele>1092.5</ele>
        <time>2015-08-22T15:07:46.489Z</time>
      </trkpt>
      <trkpt lat="44.22535" lon="3.51138">
        <ele>1095.1</ele>
        <time>2015-08-22T15:07:54.536Z</time>
      </trkpt>
      <trkpt lat="44.22535" lon="3.51136">
        <ele>1095.2</ele>
        <time>2015-08-22T15:07:55.493Z</time>
      </trkpt>
      <trkpt lat="44.22533" lon="3.51124">
        <ele>1097.4</ele>
        <time>2015-08-22T15:08:04.539Z</time>
      </trkpt>
      <trkpt lat="44.22533" lon="3.51123">
        <ele>1097.6</ele>
        <time>2015-08-22T15:08:05.491Z</time>
      </trkpt>
      <trkpt lat="44.2253" lon="3.51112">
        <ele>1099.3</ele>
        <time>2015-08-22T15:08:14.534Z</time>
      </trkpt>
      <trkpt lat="44.2253" lon="3.5111">
        <ele>1099.3</ele>
        <time>2015-08-22T15:08:15.491Z</time>
      </trkpt>
      <trkpt lat="44.2253" lon="3.51097">
        <ele>1099.8</ele>
        <time>2015-08-22T15:08:23.543Z</time>
      </trkpt>
      <trkpt lat="44.2253" lon="3.51096">
        <ele>1099.9</ele>
        <time>2015-08-22T15:08:24.494Z</time>
      </trkpt>
      <trkpt lat="44.2253" lon="3.51084">
        <ele>1100.1</ele>
        <time>2015-08-22T15:08:31.527Z</time>
      </trkpt>
      <trkpt lat="44.22529" lon="3.51082">
        <ele>1100.1</ele>
        <time>2015-08-22T15:08:32.490Z</time>
      </trkpt>
      <trkpt lat="44.22527" lon="3.51071">
        <ele>1099.8</ele>
        <time>2015-08-22T15:08:39.535Z</time>
      </trkpt>
      <trkpt lat="44.22526" lon="3.5107">
        <ele>1099.8</ele>
        <time>2015-08-22T15:08:40.494Z</time>
      </trkpt>
      <trkpt lat="44.22526" lon="3.51057">
        <ele>1100.5</ele>
        <time>2015-08-22T15:08:49.535Z</time>
      </trkpt>
      <trkpt lat="44.22526" lon="3.51056">
        <ele>1100.6</ele>
        <time>2015-08-22T15:08:50.491Z</time>
      </trkpt>
      <trkpt lat="44.22523" lon="3.51045">
        <ele>1101.5</ele>
        <time>2015-08-22T15:08:58.531Z</time>
      </trkpt>
      <trkpt lat="44.22523" lon="3.51045">
        <ele>1101.5</ele>
        <time>2015-08-22T15:08:59.490Z</time>
      </trkpt>
      <trkpt lat="44.22517" lon="3.51035">
        <ele>1102.7</ele>
        <time>2015-08-22T15:09:09.539Z</time>
      </trkpt>
      <trkpt lat="44.22516" lon="3.51034">
        <ele>1102.5</ele>
        <time>2015-08-22T15:09:10.491Z</time>
      </trkpt>
      <trkpt lat="44.22518" lon="3.51022">
        <ele>1102.9</ele>
        <time>2015-08-22T15:09:28.549Z</time>
      </trkpt>
      <trkpt lat="44.22519" lon="3.51021">
        <ele>1103</ele>
        <time>2015-08-22T15:09:29.503Z</time>
      </trkpt>
      <trkpt lat="44.22523" lon="3.51011">
        <ele>1102.8</ele>
        <time>2015-08-22T15:09:44.545Z</time>
      </trkpt>
      <trkpt lat="44.22524" lon="3.5101">
        <ele>1102.8</ele>
        <time>2015-08-22T15:09:45.492Z</time>
      </trkpt>
      <trkpt lat="44.22526" lon="3.50999">
        <ele>1103.5</ele>
        <time>2015-08-22T15:09:54.541Z</time>
      </trkpt>
      <trkpt lat="44.22526" lon="3.50997">
        <ele>1103.6</ele>
        <time>2015-08-22T15:09:55.492Z</time>
      </trkpt>
      <trkpt lat="44.22526" lon="3.50985">
        <ele>1105.6</ele>
        <time>2015-08-22T15:10:06.541Z</time>
      </trkpt>
      <trkpt lat="44.22526" lon="3.50984">
        <ele>1105.8</ele>
        <time>2015-08-22T15:10:07.497Z</time>
      </trkpt>
      <trkpt lat="44.22528" lon="3.50973">
        <ele>1107.6</ele>
        <time>2015-08-22T15:10:16.815Z</time>
      </trkpt>
      <trkpt lat="44.22528" lon="3.50971">
        <ele>1107.8</ele>
        <time>2015-08-22T15:10:17.491Z</time>
      </trkpt>
      <trkpt lat="44.22529" lon="3.50959">
        <ele>1109.3</ele>
        <time>2015-08-22T15:10:27.543Z</time>
      </trkpt>
      <trkpt lat="44.22529" lon="3.50958">
        <ele>1109.5</ele>
        <time>2015-08-22T15:10:28.500Z</time>
      </trkpt>
      <trkpt lat="44.22527" lon="3.50946">
        <ele>1112.7</ele>
        <time>2015-08-22T15:10:42.587Z</time>
      </trkpt>
      <trkpt lat="44.22527" lon="3.50945">
        <ele>1112.9</ele>
        <time>2015-08-22T15:10:43.518Z</time>
      </trkpt>
      <trkpt lat="44.22527" lon="3.50933">
        <ele>1114.4</ele>
        <time>2015-08-22T15:10:55.539Z</time>
      </trkpt>
      <trkpt lat="44.22527" lon="3.50932">
        <ele>1114.4</ele>
        <time>2015-08-22T15:10:56.491Z</time>
      </trkpt>
      <trkpt lat="44.22529" lon="3.50921">
        <ele>1115.2</ele>
        <time>2015-08-22T15:11:05.566Z</time>
      </trkpt>
      <trkpt lat="44.22529" lon="3.50919">
        <ele>1115.3</ele>
        <time>2015-08-22T15:11:06.489Z</time>
      </trkpt>
      <trkpt lat="44.22527" lon="3.50907">
        <ele>1116.7</ele>
        <time>2015-08-22T15:11:17.540Z</time>
      </trkpt>
      <trkpt lat="44.22527" lon="3.50906">
        <ele>1116.8</ele>
        <time>2015-08-22T15:11:18.491Z</time>
      </trkpt>
      <trkpt lat="44.22521" lon="3.50897">
        <ele>1118.7</ele>
        <time>2015-08-22T15:11:29.532Z</time>
      </trkpt>
      <trkpt lat="44.22521" lon="3.50895">
        <ele>1118.6</ele>
        <time>2015-08-22T15:11:30.488Z</time>
      </trkpt>
      <trkpt lat="44.22526" lon="3.50885">
        <ele>1117.9</ele>
        <time>2015-08-22T15:12:25.546Z</time>
      </trkpt>
      <trkpt lat="44.22527" lon="3.50884">
        <ele>1118</ele>
        <time>2015-08-22T15:12:26.490Z</time>
      </trkpt>
      <trkpt lat="44.22526" lon="3.50873">
        <ele>1117.9</ele>
        <time>2015-08-22T15:12:34.540Z</time>
      </trkpt>
      <trkpt lat="44.22526" lon="3.50871">
        <ele>1118</ele>
        <time>2015-08-22T15:12:35.491Z</time>
      </trkpt>
      <trkpt lat="44.22526" lon="3.5086">
        <ele>1118.5</ele>
        <time>2015-08-22T15:12:43.550Z</time>
      </trkpt>
      <trkpt lat="44.22527" lon="3.50858">
        <ele>1118.6</ele>
        <time>2015-08-22T15:12:44.490Z</time>
      </trkpt>
      <trkpt lat="44.22526" lon="3.50847">
        <ele>1119.4</ele>
        <time>2015-08-22T15:12:52.556Z</time>
      </trkpt>
      <trkpt lat="44.22526" lon="3.50846">
        <ele>1119.6</ele>
        <time>2015-08-22T15:12:53.879Z</time>
      </trkpt>
      <trkpt lat="44.22521" lon="3.50836">
        <ele>1120.5</ele>
        <time>2015-08-22T15:13:26.556Z</time>
      </trkpt>
      <trkpt lat="44.2252" lon="3.50836">
        <ele>1120.4</ele>
        <time>2015-08-22T15:13:27.501Z</time>
      </trkpt>
      <trkpt lat="44.22519" lon="3.50824">
        <ele>1121</ele>
        <time>2015-08-22T15:13:35.618Z</time>
      </trkpt>
      <trkpt lat="44.22519" lon="3.50822">
        <ele>1121.1</ele>
        <time>2015-08-22T15:13:36.490Z</time>
      </trkpt>
      <trkpt lat="44.22522" lon="3.50811">
        <ele>1121.4</ele>
        <time>2015-08-22T15:13:59.535Z</time>
      </trkpt>
      <trkpt lat="44.22522" lon="3.5081">
        <ele>1121.6</ele>
        <time>2015-08-22T15:14:00.502Z</time>
      </trkpt>
      <trkpt lat="44.22524" lon="3.50798">
        <ele>1122.2</ele>
        <time>2015-08-22T15:14:09.557Z</time>
      </trkpt>
      <trkpt lat="44.22524" lon="3.50797">
        <ele>1122.2</ele>
        <time>2015-08-22T15:14:10.502Z</time>
      </trkpt>
      <trkpt lat="44.22525" lon="3.50785">
        <ele>1123.1</ele>
        <time>2015-08-22T15:14:17.560Z</time>
      </trkpt>
      <trkpt lat="44.22525" lon="3.50784">
        <ele>1123.2</ele>
        <time>2015-08-22T15:14:18.491Z</time>
      </trkpt>
      <trkpt lat="44.22527" lon="3.50773">
        <ele>1123.8</ele>
        <time>2015-08-22T15:14:24.947Z</time>
      </trkpt>
      <trkpt lat="44.22528" lon="3.5077">
        <ele>1123.9</ele>
        <time>2015-08-22T15:14:25.490Z</time>
      </trkpt>
      <trkpt lat="44.22529" lon="3.50759">
        <ele>1124.7</ele>
        <time>2015-08-22T15:14:32.577Z</time>
      </trkpt>
      <trkpt lat="44.22529" lon="3.50757">
        <ele>1124.9</ele>
        <time>2015-08-22T15:14:33.490Z</time>
      </trkpt>
      <trkpt lat="44.22529" lon="3.50745">
        <ele>1126.3</ele>
        <time>2015-08-22T15:14:42.558Z</time>
      </trkpt>
      <trkpt lat="44.22529" lon="3.50743">
        <ele>1126.5</ele>
        <time>2015-08-22T15:14:43.498Z</time>
      </trkpt>
      <trkpt lat="44.22531" lon="3.50731">
        <ele>1127.4</ele>
        <time>2015-08-22T15:15:04.537Z</time>
      </trkpt>
      <trkpt lat="44.22532" lon="3.5073">
        <ele>1127.4</ele>
        <time>2015-08-22T15:15:05.493Z</time>
      </trkpt>
      <trkpt lat="44.22536" lon="3.5072">
        <ele>1127.6</ele>
        <time>2015-08-22T15:15:15.998Z</time>
      </trkpt>
      <trkpt lat="44.22537" lon="3.50719">
        <ele>1127.7</ele>
        <time>2015-08-22T15:15:16.491Z</time>
      </trkpt>
      <trkpt lat="44.22541" lon="3.50708">
        <ele>1128.1</ele>
        <time>2015-08-22T15:15:25.541Z</time>
      </trkpt>
      <trkpt lat="44.22542" lon="3.50706">
        <ele>1128.3</ele>
        <time>2015-08-22T15:15:26.490Z</time>
      </trkpt>
      <trkpt lat="44.22543" lon="3.50695">
        <ele>1129.7</ele>
        <time>2015-08-22T15:15:36.553Z</time>
      </trkpt>
      <trkpt lat="44.22543" lon="3.50694">
        <ele>1129.8</ele>
        <time>2015-08-22T15:15:37.533Z</time>
      </trkpt>
      <trkpt lat="44.22547" lon="3.50684">
        <ele>1131.1</ele>
        <time>2015-08-22T15:15:46.540Z</time>
      </trkpt>
      <trkpt lat="44.22548" lon="3.50683">
        <ele>1131.1</ele>
        <time>2015-08-22T15:15:47.488Z</time>
      </trkpt>
      <trkpt lat="44.22551" lon="3.50673">
        <ele>1132.6</ele>
        <time>2015-08-22T15:15:56.540Z</time>
      </trkpt>
      <trkpt lat="44.22551" lon="3.50671">
        <ele>1132.6</ele>
        <time>2015-08-22T15:15:57.488Z</time>
      </trkpt>
      <trkpt lat="44.22552" lon="3.5066">
        <ele>1133.9</ele>
        <time>2015-08-22T15:16:05.538Z</time>
      </trkpt>
      <trkpt lat="44.22552" lon="3.50658">
        <ele>1134.1</ele>
        <time>2015-08-22T15:16:06.490Z</time>
      </trkpt>
      <trkpt lat="44.22557" lon="3.50649">
        <ele>1136.5</ele>
        <time>2015-08-22T15:16:17.539Z</time>
      </trkpt>
      <trkpt lat="44.22557" lon="3.50648">
        <ele>1136.7</ele>
        <time>2015-08-22T15:16:18.491Z</time>
      </trkpt>
      <trkpt lat="44.22562" lon="3.50638">
        <ele>1138.3</ele>
        <time>2015-08-22T15:16:26.542Z</time>
      </trkpt>
      <trkpt lat="44.22562" lon="3.50637">
        <ele>1138.5</ele>
        <time>2015-08-22T15:16:27.488Z</time>
      </trkpt>
      <trkpt lat="44.22568" lon="3.5063">
        <ele>1139.4</ele>
        <time>2015-08-22T15:16:34.540Z</time>
      </trkpt>
      <trkpt lat="44.22569" lon="3.50629">
        <ele>1139.4</ele>
        <time>2015-08-22T15:16:35.500Z</time>
      </trkpt>
      <trkpt lat="44.22575" lon="3.50619">
        <ele>1139.8</ele>
        <time>2015-08-22T15:16:46.537Z</time>
      </trkpt>
      <trkpt lat="44.22575" lon="3.50618">
        <ele>1139.7</ele>
        <time>2015-08-22T15:16:47.488Z</time>
      </trkpt>
      <trkpt lat="44.22578" lon="3.50607">
        <ele>1139.9</ele>
        <time>2015-08-22T15:16:57.540Z</time>
      </trkpt>
      <trkpt lat="44.22578" lon="3.50606">
        <ele>1139.9</ele>
        <time>2015-08-22T15:16:58.491Z</time>
      </trkpt>
      <trkpt lat="44.22578" lon="3.50594">
        <ele>1139.8</ele>
        <time>2015-08-22T15:17:05.532Z</time>
      </trkpt>
      <trkpt lat="44.22578" lon="3.50592">
        <ele>1139.9</ele>
        <time>2015-08-22T15:17:06.488Z</time>
      </trkpt>
      <trkpt lat="44.22577" lon="3.5058">
        <ele>1139.8</ele>
        <time>2015-08-22T15:17:19.531Z</time>
      </trkpt>
      <trkpt lat="44.22577" lon="3.50579">
        <ele>1139.9</ele>
        <time>2015-08-22T15:17:20.490Z</time>
      </trkpt>
      <trkpt lat="44.22574" lon="3.50568">
        <ele>1139.2</ele>
        <time>2015-08-22T15:17:27.529Z</time>
      </trkpt>
      <trkpt lat="44.22574" lon="3.50567">
        <ele>1139.2</ele>
        <time>2015-08-22T15:17:28.490Z</time>
      </trkpt>
      <trkpt lat="44.22571" lon="3.50555">
        <ele>1138.8</ele>
        <time>2015-08-22T15:17:36.557Z</time>
      </trkpt>
      <trkpt lat="44.2257" lon="3.50554">
        <ele>1138.7</ele>
        <time>2015-08-22T15:17:37.504Z</time>
      </trkpt>
      <trkpt lat="44.22568" lon="3.50543">
        <ele>1139.5</ele>
        <time>2015-08-22T15:17:46.532Z</time>
      </trkpt>
      <trkpt lat="44.22567" lon="3.50541">
        <ele>1139.4</ele>
        <time>2015-08-22T15:17:47.493Z</time>
      </trkpt>
      <trkpt lat="44.2256" lon="3.50534">
        <ele>1140</ele>
        <time>2015-08-22T15:17:56.533Z</time>
      </trkpt>
      <trkpt lat="44.2256" lon="3.50533">
        <ele>1140.3</ele>
        <time>2015-08-22T15:17:57.490Z</time>
      </trkpt>
      <trkpt lat="44.22552" lon="3.50529">
        <ele>1141.1</ele>
        <time>2015-08-22T15:18:06.522Z</time>
      </trkpt>
      <trkpt lat="44.22551" lon="3.50528">
        <ele>1141.2</ele>
        <time>2015-08-22T15:18:07.754Z</time>
      </trkpt>
      <trkpt lat="44.2255" lon="3.50517">
        <ele>1141.7</ele>
        <time>2015-08-22T15:18:16.522Z</time>
      </trkpt>
      <trkpt lat="44.2255" lon="3.50515">
        <ele>1141.7</ele>
        <time>2015-08-22T15:18:17.489Z</time>
      </trkpt>
      <trkpt lat="44.22549" lon="3.50503">
        <ele>1142.1</ele>
        <time>2015-08-22T15:18:29.902Z</time>
      </trkpt>
      <trkpt lat="44.22549" lon="3.50503">
        <ele>1142.2</ele>
        <time>2015-08-22T15:18:30.490Z</time>
      </trkpt>
      <trkpt lat="44.22548" lon="3.50491">
        <ele>1142.6</ele>
        <time>2015-08-22T15:18:55.532Z</time>
      </trkpt>
      <trkpt lat="44.22548" lon="3.50489">
        <ele>1142.7</ele>
        <time>2015-08-22T15:18:56.501Z</time>
      </trkpt>
      <trkpt lat="44.2254" lon="3.50484">
        <ele>1143.7</ele>
        <time>2015-08-22T15:19:07.563Z</time>
      </trkpt>
      <trkpt lat="44.22539" lon="3.50483">
        <ele>1143.9</ele>
        <time>2015-08-22T15:19:08.493Z</time>
      </trkpt>
      <trkpt lat="44.22536" lon="3.50471">
        <ele>1147.2</ele>
        <time>2015-08-22T15:19:22.533Z</time>
      </trkpt>
      <trkpt lat="44.22536" lon="3.5047">
        <ele>1147.4</ele>
        <time>2015-08-22T15:19:23.516Z</time>
      </trkpt>
      <trkpt lat="44.22538" lon="3.50459">
        <ele>1149.2</ele>
        <time>2015-08-22T15:19:33.541Z</time>
      </trkpt>
      <trkpt lat="44.22538" lon="3.50457">
        <ele>1149.3</ele>
        <time>2015-08-22T15:19:34.489Z</time>
      </trkpt>
      <trkpt lat="44.22539" lon="3.50445">
        <ele>1150.7</ele>
        <time>2015-08-22T15:19:43.543Z</time>
      </trkpt>
      <trkpt lat="44.22539" lon="3.50444">
        <ele>1151</ele>
        <time>2015-08-22T15:19:44.488Z</time>
      </trkpt>
      <trkpt lat="44.22539" lon="3.50431">
        <ele>1153</ele>
        <time>2015-08-22T15:19:53.539Z</time>
      </trkpt>
      <trkpt lat="44.22538" lon="3.5043">
        <ele>1153.1</ele>
        <time>2015-08-22T15:19:54.490Z</time>
      </trkpt>
      <trkpt lat="44.2254" lon="3.50419">
        <ele>1155</ele>
        <time>2015-08-22T15:20:03.537Z</time>
      </trkpt>
      <trkpt lat="44.2254" lon="3.50418">
        <ele>1155.2</ele>
        <time>2015-08-22T15:20:04.499Z</time>
      </trkpt>
      <trkpt lat="44.22541" lon="3.50406">
        <ele>1157.2</ele>
        <time>2015-08-22T15:20:15.538Z</time>
      </trkpt>
      <trkpt lat="44.22541" lon="3.50405">
        <ele>1157.4</ele>
        <time>2015-08-22T15:20:16.490Z</time>
      </trkpt>
      <trkpt lat="44.2254" lon="3.50393">
        <ele>1158.7</ele>
        <time>2015-08-22T15:20:29.545Z</time>
      </trkpt>
      <trkpt lat="44.22541" lon="3.50392">
        <ele>1158.7</ele>
        <time>2015-08-22T15:20:30.490Z</time>
      </trkpt>
      <trkpt lat="44.22543" lon="3.50381">
        <ele>1159.1</ele>
        <time>2015-08-22T15:21:06.531Z</time>
      </trkpt>
      <trkpt lat="44.22544" lon="3.5038">
        <ele>1159.1</ele>
        <time>2015-08-22T15:21:07.491Z</time>
      </trkpt>
      <trkpt lat="44.22548" lon="3.50369">
        <ele>1159</ele>
        <time>2015-08-22T15:21:16.570Z</time>
      </trkpt>
      <trkpt lat="44.22548" lon="3.50368">
        <ele>1159</ele>
        <time>2015-08-22T15:21:17.489Z</time>
      </trkpt>
      <trkpt lat="44.22547" lon="3.50357">
        <ele>1158.1</ele>
        <time>2015-08-22T15:21:29.523Z</time>
      </trkpt>
      <trkpt lat="44.22547" lon="3.50355">
        <ele>1158.1</ele>
        <time>2015-08-22T15:21:30.487Z</time>
      </trkpt>
      <trkpt lat="44.2255" lon="3.50344">
        <ele>1157.8</ele>
        <time>2015-08-22T15:21:37.544Z</time>
      </trkpt>
      <trkpt lat="44.2255" lon="3.50343">
        <ele>1157.8</ele>
        <time>2015-08-22T15:21:38.490Z</time>
      </trkpt>
      <trkpt lat="44.2255" lon="3.50331">
        <ele>1157.5</ele>
        <time>2015-08-22T15:21:48.525Z</time>
      </trkpt>
      <trkpt lat="44.2255" lon="3.5033">
        <ele>1157.5</ele>
        <time>2015-08-22T15:21:49.489Z</time>
      </trkpt>
      <trkpt lat="44.22551" lon="3.50326">
        <ele>1157.5</ele>
        <time>2015-08-22T15:22:29.529Z</time>
      </trkpt>
      <trkpt lat="44.2255" lon="3.50316">
        <ele>1156.1</ele>
        <time>2015-08-22T15:22:30.488Z</time>
      </trkpt>
      <trkpt lat="44.22549" lon="3.50304">
        <ele>1155.3</ele>
        <time>2015-08-22T15:22:40.533Z</time>
      </trkpt>
      <trkpt lat="44.22549" lon="3.50303">
        <ele>1155.3</ele>
        <time>2015-08-22T15:22:41.495Z</time>
      </trkpt>
      <trkpt lat="44.22548" lon="3.50291">
        <ele>1154.8</ele>
        <time>2015-08-22T15:22:49.531Z</time>
      </trkpt>
      <trkpt lat="44.22548" lon="3.50289">
        <ele>1154.7</ele>
        <time>2015-08-22T15:22:50.488Z</time>
      </trkpt>
      <trkpt lat="44.22545" lon="3.50278">
        <ele>1154.5</ele>
        <time>2015-08-22T15:22:57.532Z</time>
      </trkpt>
      <trkpt lat="44.22545" lon="3.50277">
        <ele>1154.4</ele>
        <time>2015-08-22T15:22:58.490Z</time>
      </trkpt>
      <trkpt lat="44.22545" lon="3.50264">
        <ele>1155</ele>
        <time>2015-08-22T15:23:07.532Z</time>
      </trkpt>
      <trkpt lat="44.22545" lon="3.50263">
        <ele>1155.1</ele>
        <time>2015-08-22T15:23:08.490Z</time>
      </trkpt>
      <trkpt lat="44.2255" lon="3.50253">
        <ele>1156.2</ele>
        <time>2015-08-22T15:23:20.557Z</time>
      </trkpt>
      <trkpt lat="44.22551" lon="3.50253">
        <ele>1156.2</ele>
        <time>2015-08-22T15:23:21.488Z</time>
      </trkpt>
      <trkpt lat="44.22559" lon="3.50249">
        <ele>1156.6</ele>
        <time>2015-08-22T15:23:28.532Z</time>
      </trkpt>
      <trkpt lat="44.22559" lon="3.50248">
        <ele>1156.6</ele>
        <time>2015-08-22T15:23:29.490Z</time>
      </trkpt>
      <trkpt lat="44.22565" lon="3.50239">
        <ele>1157.7</ele>
        <time>2015-08-22T15:23:37.909Z</time>
      </trkpt>
      <trkpt lat="44.22566" lon="3.50238">
        <ele>1157.9</ele>
        <time>2015-08-22T15:23:38.489Z</time>
      </trkpt>
      <trkpt lat="44.22571" lon="3.50229">
        <ele>1158.1</ele>
        <time>2015-08-22T15:23:45.530Z</time>
      </trkpt>
      <trkpt lat="44.22572" lon="3.50227">
        <ele>1158.1</ele>
        <time>2015-08-22T15:23:46.499Z</time>
      </trkpt>
      <trkpt lat="44.22575" lon="3.50217">
        <ele>1157.9</ele>
        <time>2015-08-22T15:23:53.574Z</time>
      </trkpt>
      <trkpt lat="44.22575" lon="3.50215">
        <ele>1157.9</ele>
        <time>2015-08-22T15:23:54.501Z</time>
      </trkpt>
      <trkpt lat="44.22576" lon="3.50207">
        <ele>1158.4</ele>
        <time>2015-08-22T15:26:06.528Z</time>
      </trkpt>
      <trkpt lat="44.22579" lon="3.50201">
        <ele>1148.3</ele>
        <time>2015-08-22T15:26:07.492Z</time>
      </trkpt>
      <trkpt lat="44.22571" lon="3.50201">
        <ele>1147.5</ele>
        <time>2015-08-22T15:26:29.532Z</time>
      </trkpt>
      <trkpt lat="44.2257" lon="3.50202">
        <ele>1147.5</ele>
        <time>2015-08-22T15:26:30.490Z</time>
      </trkpt>
      <trkpt lat="44.22562" lon="3.50206">
        <ele>1148.2</ele>
        <time>2015-08-22T15:26:37.531Z</time>
      </trkpt>
      <trkpt lat="44.22561" lon="3.50207">
        <ele>1148.3</ele>
        <time>2015-08-22T15:26:38.501Z</time>
      </trkpt>
      <trkpt lat="44.22555" lon="3.50214">
        <ele>1149.6</ele>
        <time>2015-08-22T15:26:45.537Z</time>
      </trkpt>
      <trkpt lat="44.22554" lon="3.50215">
        <ele>1149.7</ele>
        <time>2015-08-22T15:26:46.488Z</time>
      </trkpt>
      <trkpt lat="44.22547" lon="3.50221">
        <ele>1150.5</ele>
        <time>2015-08-22T15:26:53.535Z</time>
      </trkpt>
      <trkpt lat="44.22546" lon="3.50222">
        <ele>1150.6</ele>
        <time>2015-08-22T15:26:54.489Z</time>
      </trkpt>
      <trkpt lat="44.22553" lon="3.50217">
        <ele>1152.1</ele>
        <time>2015-08-22T15:27:12.531Z</time>
      </trkpt>
      <trkpt lat="44.22554" lon="3.50216">
        <ele>1152.1</ele>
        <time>2015-08-22T15:27:13.492Z</time>
      </trkpt>
      <trkpt lat="44.2256" lon="3.50209">
        <ele>1152.6</ele>
        <time>2015-08-22T15:27:21.531Z</time>
      </trkpt>
      <trkpt lat="44.22561" lon="3.50208">
        <ele>1152.6</ele>
        <time>2015-08-22T15:27:22.497Z</time>
      </trkpt>
      <trkpt lat="44.22569" lon="3.50203">
        <ele>1152.5</ele>
        <time>2015-08-22T15:27:29.597Z</time>
      </trkpt>
      <trkpt lat="44.2257" lon="3.50203">
        <ele>1152.4</ele>
        <time>2015-08-22T15:27:30.490Z</time>
      </trkpt>
      <trkpt lat="44.22576" lon="3.50194">
        <ele>1151.6</ele>
        <time>2015-08-22T15:27:42.531Z</time>
      </trkpt>
      <trkpt lat="44.22577" lon="3.50194">
        <ele>1151.5</ele>
        <time>2015-08-22T15:27:43.501Z</time>
      </trkpt>
      <trkpt lat="44.22585" lon="3.50191">
        <ele>1150.2</ele>
        <time>2015-08-22T15:27:49.534Z</time>
      </trkpt>
      <trkpt lat="44.22586" lon="3.50191">
        <ele>1149.8</ele>
        <time>2015-08-22T15:27:50.500Z</time>
      </trkpt>
      <trkpt lat="44.22594" lon="3.50192">
        <ele>1148.5</ele>
        <time>2015-08-22T15:27:56.530Z</time>
      </trkpt>
      <trkpt lat="44.22596" lon="3.50192">
        <ele>1148.3</ele>
        <time>2015-08-22T15:27:57.489Z</time>
      </trkpt>
      <trkpt lat="44.22604" lon="3.50191">
        <ele>1147.1</ele>
        <time>2015-08-22T15:28:06.536Z</time>
      </trkpt>
      <trkpt lat="44.22605" lon="3.5019">
        <ele>1147</ele>
        <time>2015-08-22T15:28:07.493Z</time>
      </trkpt>
      <trkpt lat="44.2261" lon="3.50182">
        <ele>1145.6</ele>
        <time>2015-08-22T15:28:17.537Z</time>
      </trkpt>
      <trkpt lat="44.22611" lon="3.50181">
        <ele>1145.6</ele>
        <time>2015-08-22T15:28:18.491Z</time>
      </trkpt>
      <trkpt lat="44.22616" lon="3.50171">
        <ele>1145.7</ele>
        <time>2015-08-22T15:28:25.534Z</time>
      </trkpt>
      <trkpt lat="44.22617" lon="3.50171">
        <ele>1145.9</ele>
        <time>2015-08-22T15:28:26.490Z</time>
      </trkpt>
      <trkpt lat="44.22624" lon="3.50164">
        <ele>1146.3</ele>
        <time>2015-08-22T15:28:34.533Z</time>
      </trkpt>
      <trkpt lat="44.22625" lon="3.50164">
        <ele>1146.4</ele>
        <time>2015-08-22T15:28:35.491Z</time>
      </trkpt>
      <trkpt lat="44.22633" lon="3.5016">
        <ele>1146.2</ele>
        <time>2015-08-22T15:28:41.580Z</time>
      </trkpt>
      <trkpt lat="44.22634" lon="3.50159">
        <ele>1146.5</ele>
        <time>2015-08-22T15:28:42.493Z</time>
      </trkpt>
      <trkpt lat="44.22642" lon="3.50156">
        <ele>1147.7</ele>
        <time>2015-08-22T15:28:48.599Z</time>
      </trkpt>
      <trkpt lat="44.22643" lon="3.50155">
        <ele>1147.4</ele>
        <time>2015-08-22T15:28:49.493Z</time>
      </trkpt>
      <trkpt lat="44.22643" lon="3.50144">
        <ele>1149.9</ele>
        <time>2015-08-22T15:29:02.542Z</time>
      </trkpt>
      <trkpt lat="44.22642" lon="3.50142">
        <ele>1150.1</ele>
        <time>2015-08-22T15:29:03.503Z</time>
      </trkpt>
      <trkpt lat="44.22646" lon="3.50131">
        <ele>1154.1</ele>
        <time>2015-08-22T15:29:23.554Z</time>
      </trkpt>
      <trkpt lat="44.22646" lon="3.50131">
        <ele>1154.1</ele>
        <time>2015-08-22T15:29:25.152Z</time>
      </trkpt>
      <trkpt lat="44.22648" lon="3.50118">
        <ele>1152.5</ele>
        <time>2015-08-22T15:30:04.567Z</time>
      </trkpt>
      <trkpt lat="44.22647" lon="3.50117">
        <ele>1152.6</ele>
        <time>2015-08-22T15:30:05.505Z</time>
      </trkpt>
      <trkpt lat="44.22646" lon="3.50105">
        <ele>1152.8</ele>
        <time>2015-08-22T15:30:12.587Z</time>
      </trkpt>
      <trkpt lat="44.22645" lon="3.50103">
        <ele>1152.8</ele>
        <time>2015-08-22T15:30:13.509Z</time>
      </trkpt>
      <trkpt lat="44.22641" lon="3.50092">
        <ele>1152.9</ele>
        <time>2015-08-22T15:30:21.540Z</time>
      </trkpt>
      <trkpt lat="44.22641" lon="3.50091">
        <ele>1152.8</ele>
        <time>2015-08-22T15:30:22.494Z</time>
      </trkpt>
      <trkpt lat="44.22634" lon="3.50084">
        <ele>1153</ele>
        <time>2015-08-22T15:30:29.531Z</time>
      </trkpt>
      <trkpt lat="44.22632" lon="3.50083">
        <ele>1153.1</ele>
        <time>2015-08-22T15:30:30.494Z</time>
      </trkpt>
      <trkpt lat="44.22625" lon="3.50077">
        <ele>1153.5</ele>
        <time>2015-08-22T15:30:37.543Z</time>
      </trkpt>
      <trkpt lat="44.22624" lon="3.50076">
        <ele>1153.6</ele>
        <time>2015-08-22T15:30:38.492Z</time>
      </trkpt>
      <trkpt lat="44.22618" lon="3.50069">
        <ele>1154.1</ele>
        <time>2015-08-22T15:30:44.533Z</time>
      </trkpt>
      <trkpt lat="44.22617" lon="3.50068">
        <ele>1154.3</ele>
        <time>2015-08-22T15:30:45.497Z</time>
      </trkpt>
      <trkpt lat="44.22612" lon="3.50059">
        <ele>1155</ele>
        <time>2015-08-22T15:30:52.531Z</time>
      </trkpt>
      <trkpt lat="44.22611" lon="3.50058">
        <ele>1155.2</ele>
        <time>2015-08-22T15:30:53.492Z</time>
      </trkpt>
      <trkpt lat="44.2261" lon="3.50046">
        <ele>1156.2</ele>
        <time>2015-08-22T15:31:11.833Z</time>
      </trkpt>
      <trkpt lat="44.2261" lon="3.50045">
        <ele>1156.4</ele>
        <time>2015-08-22T15:31:12.498Z</time>
      </trkpt>
      <trkpt lat="44.22613" lon="3.50034">
        <ele>1158.1</ele>
        <time>2015-08-22T15:31:20.583Z</time>
      </trkpt>
      <trkpt lat="44.22613" lon="3.50032">
        <ele>1158.4</ele>
        <time>2015-08-22T15:31:21.518Z</time>
      </trkpt>
      <trkpt lat="44.22615" lon="3.50021">
        <ele>1161.2</ele>
        <time>2015-08-22T15:31:30.910Z</time>
      </trkpt>
      <trkpt lat="44.22615" lon="3.50019">
        <ele>1161.5</ele>
        <time>2015-08-22T15:31:31.495Z</time>
      </trkpt>
      <trkpt lat="44.22617" lon="3.50008">
        <ele>1163.1</ele>
        <time>2015-08-22T15:31:38.524Z</time>
      </trkpt>
      <trkpt lat="44.22617" lon="3.50006">
        <ele>1163.3</ele>
        <time>2015-08-22T15:31:39.493Z</time>
      </trkpt>
      <trkpt lat="44.22622" lon="3.49996">
        <ele>1164.8</ele>
        <time>2015-08-22T15:31:46.895Z</time>
      </trkpt>
      <trkpt lat="44.22622" lon="3.49994">
        <ele>1165</ele>
        <time>2015-08-22T15:31:47.717Z</time>
      </trkpt>
      <trkpt lat="44.22624" lon="3.49982">
        <ele>1166.3</ele>
        <time>2015-08-22T15:31:55.536Z</time>
      </trkpt>
      <trkpt lat="44.22624" lon="3.49981">
        <ele>1166.5</ele>
        <time>2015-08-22T15:31:56.503Z</time>
      </trkpt>
      <trkpt lat="44.22624" lon="3.49968">
        <ele>1167.4</ele>
        <time>2015-08-22T15:32:05.537Z</time>
      </trkpt>
      <trkpt lat="44.22622" lon="3.49967">
        <ele>1167.5</ele>
        <time>2015-08-22T15:32:06.493Z</time>
      </trkpt>
      <trkpt lat="44.22614" lon="3.49963">
        <ele>1168.7</ele>
        <time>2015-08-22T15:32:14.587Z</time>
      </trkpt>
      <trkpt lat="44.22614" lon="3.49963">
        <ele>1168.8</ele>
        <time>2015-08-22T15:32:15.499Z</time>
      </trkpt>
      <trkpt lat="44.22611" lon="3.49952">
        <ele>1169.8</ele>
        <time>2015-08-22T15:32:24.538Z</time>
      </trkpt>
      <trkpt lat="44.2261" lon="3.49951">
        <ele>1170</ele>
        <time>2015-08-22T15:32:25.500Z</time>
      </trkpt>
      <trkpt lat="44.22611" lon="3.49939">
        <ele>1172.1</ele>
        <time>2015-08-22T15:32:34.582Z</time>
      </trkpt>
      <trkpt lat="44.22611" lon="3.49937">
        <ele>1172.4</ele>
        <time>2015-08-22T15:32:35.518Z</time>
      </trkpt>
      <trkpt lat="44.22611" lon="3.49925">
        <ele>1173.7</ele>
        <time>2015-08-22T15:32:44.538Z</time>
      </trkpt>
      <trkpt lat="44.22611" lon="3.49924">
        <ele>1173.7</ele>
        <time>2015-08-22T15:32:45.496Z</time>
      </trkpt>
      <trkpt lat="44.22619" lon="3.49926">
        <ele>1173.5</ele>
        <time>2015-08-22T15:33:15.540Z</time>
      </trkpt>
      <trkpt lat="44.22621" lon="3.49926">
        <ele>1173.5</ele>
        <time>2015-08-22T15:33:16.493Z</time>
      </trkpt>
      <trkpt lat="44.22629" lon="3.49929">
        <ele>1175.3</ele>
        <time>2015-08-22T15:33:24.545Z</time>
      </trkpt>
      <trkpt lat="44.2263" lon="3.49928">
        <ele>1175.6</ele>
        <time>2015-08-22T15:33:25.497Z</time>
      </trkpt>
      <trkpt lat="44.22625" lon="3.49919">
        <ele>1175.6</ele>
        <time>2015-08-22T15:34:20.560Z</time>
      </trkpt>
      <trkpt lat="44.22624" lon="3.49918">
        <ele>1175.5</ele>
        <time>2015-08-22T15:34:21.506Z</time>
      </trkpt>
      <trkpt lat="44.22616" lon="3.49916">
        <ele>1176.1</ele>
        <time>2015-08-22T15:34:28.560Z</time>
      </trkpt>
      <trkpt lat="44.22615" lon="3.49916">
        <ele>1176.2</ele>
        <time>2015-08-22T15:34:29.758Z</time>
      </trkpt>
      <trkpt lat="44.22607" lon="3.49914">
        <ele>1176.8</ele>
        <time>2015-08-22T15:34:35.560Z</time>
      </trkpt>
      <trkpt lat="44.22605" lon="3.49914">
        <ele>1176.6</ele>
        <time>2015-08-22T15:34:36.669Z</time>
      </trkpt>
      <trkpt lat="44.22597" lon="3.49913">
        <ele>1176.6</ele>
        <time>2015-08-22T15:34:43.597Z</time>
      </trkpt>
      <trkpt lat="44.22595" lon="3.49913">
        <ele>1176.7</ele>
        <time>2015-08-22T15:34:44.499Z</time>
      </trkpt>
      <trkpt lat="44.22587" lon="3.49912">
        <ele>1177.2</ele>
        <time>2015-08-22T15:34:51.532Z</time>
      </trkpt>
      <trkpt lat="44.22586" lon="3.49912">
        <ele>1177.3</ele>
        <time>2015-08-22T15:34:52.492Z</time>
      </trkpt>
      <trkpt lat="44.22578" lon="3.49911">
        <ele>1177.5</ele>
        <time>2015-08-22T15:34:58.551Z</time>
      </trkpt>
      <trkpt lat="44.22576" lon="3.49911">
        <ele>1177.3</ele>
        <time>2015-08-22T15:34:59.504Z</time>
      </trkpt>
      <trkpt lat="44.22568" lon="3.49915">
        <ele>1176.2</ele>
        <time>2015-08-22T15:35:07.546Z</time>
      </trkpt>
      <trkpt lat="44.22568" lon="3.49915">
        <ele>1176.1</ele>
        <time>2015-08-22T15:35:08.514Z</time>
      </trkpt>
      <trkpt lat="44.2256" lon="3.49918">
        <ele>1175.1</ele>
        <time>2015-08-22T15:35:44.557Z</time>
      </trkpt>
      <trkpt lat="44.22559" lon="3.49918">
        <ele>1175.3</ele>
        <time>2015-08-22T15:35:45.503Z</time>
      </trkpt>
      <trkpt lat="44.22551" lon="3.49921">
        <ele>1176.4</ele>
        <time>2015-08-22T15:35:52.570Z</time>
      </trkpt>
      <trkpt lat="44.22549" lon="3.49921">
        <ele>1176.3</ele>
        <time>2015-08-22T15:35:53.490Z</time>
      </trkpt>
      <trkpt lat="44.22542" lon="3.49913">
        <ele>1175.9</ele>
        <time>2015-08-22T15:36:04.540Z</time>
      </trkpt>
      <trkpt lat="44.22542" lon="3.49912">
        <ele>1175.8</ele>
        <time>2015-08-22T15:36:05.498Z</time>
      </trkpt>
      <trkpt lat="44.22539" lon="3.49922">
        <ele>1177.4</ele>
        <time>2015-08-22T15:39:12.563Z</time>
      </trkpt>
      <trkpt lat="44.22539" lon="3.49924">
        <ele>1177.4</ele>
        <time>2015-08-22T15:39:13.507Z</time>
      </trkpt>
      <trkpt lat="44.22535" lon="3.49934">
        <ele>1177.5</ele>
        <time>2015-08-22T15:43:12.531Z</time>
      </trkpt>
      <trkpt lat="44.22533" lon="3.49936">
        <ele>1177.1</ele>
        <time>2015-08-22T15:43:13.494Z</time>
      </trkpt>
      <trkpt lat="44.22527" lon="3.49946">
        <ele>1176</ele>
        <time>2015-08-22T15:43:23.541Z</time>
      </trkpt>
      <trkpt lat="44.22527" lon="3.49947">
        <ele>1175.9</ele>
        <time>2015-08-22T15:43:24.493Z</time>
      </trkpt>
      <trkpt lat="44.22526" lon="3.49959">
        <ele>1175.5</ele>
        <time>2015-08-22T15:43:39.534Z</time>
      </trkpt>
      <trkpt lat="44.22527" lon="3.4996">
        <ele>1175.5</ele>
        <time>2015-08-22T15:43:40.489Z</time>
      </trkpt>
      <trkpt lat="44.22523" lon="3.49969">
        <ele>1174.8</ele>
        <time>2015-08-22T15:44:16.555Z</time>
      </trkpt>
      <trkpt lat="44.22522" lon="3.49971">
        <ele>1174.6</ele>
        <time>2015-08-22T15:44:17.504Z</time>
      </trkpt>
      <trkpt lat="44.22518" lon="3.4998">
        <ele>1174.1</ele>
        <time>2015-08-22T15:44:25.578Z</time>
      </trkpt>
      <trkpt lat="44.22518" lon="3.49982">
        <ele>1174</ele>
        <time>2015-08-22T15:44:26.504Z</time>
      </trkpt>
      <trkpt lat="44.22514" lon="3.49992">
        <ele>1173.2</ele>
        <time>2015-08-22T15:44:33.524Z</time>
      </trkpt>
      <trkpt lat="44.22513" lon="3.49994">
        <ele>1173.1</ele>
        <time>2015-08-22T15:44:34.489Z</time>
      </trkpt>
      <trkpt lat="44.22509" lon="3.50005">
        <ele>1172.1</ele>
        <time>2015-08-22T15:44:41.573Z</time>
      </trkpt>
      <trkpt lat="44.22509" lon="3.50006">
        <ele>1171.9</ele>
        <time>2015-08-22T15:44:42.509Z</time>
      </trkpt>
      <trkpt lat="44.22505" lon="3.50017">
        <ele>1170.4</ele>
        <time>2015-08-22T15:44:50.539Z</time>
      </trkpt>
      <trkpt lat="44.22504" lon="3.50018">
        <ele>1170.2</ele>
        <time>2015-08-22T15:44:51.499Z</time>
      </trkpt>
      <trkpt lat="44.22501" lon="3.50029">
        <ele>1168.7</ele>
        <time>2015-08-22T15:44:57.617Z</time>
      </trkpt>
      <trkpt lat="44.225" lon="3.50031">
        <ele>1168.5</ele>
        <time>2015-08-22T15:44:58.492Z</time>
      </trkpt>
      <trkpt lat="44.22497" lon="3.5004">
        <ele>1167.1</ele>
        <time>2015-08-22T15:45:04.527Z</time>
      </trkpt>
      <trkpt lat="44.22497" lon="3.50042">
        <ele>1166.9</ele>
        <time>2015-08-22T15:45:05.490Z</time>
      </trkpt>
      <trkpt lat="44.22494" lon="3.50053">
        <ele>1164.9</ele>
        <time>2015-08-22T15:45:11.536Z</time>
      </trkpt>
      <trkpt lat="44.22494" lon="3.50055">
        <ele>1164.5</ele>
        <time>2015-08-22T15:45:12.491Z</time>
      </trkpt>
      <trkpt lat="44.22486" lon="3.50059">
        <ele>1161.5</ele>
        <time>2015-08-22T15:45:28.533Z</time>
      </trkpt>
      <trkpt lat="44.22485" lon="3.50058">
        <ele>1161.4</ele>
        <time>2015-08-22T15:45:29.490Z</time>
      </trkpt>
      <trkpt lat="44.22476" lon="3.50057">
        <ele>1160.2</ele>
        <time>2015-08-22T15:45:37.583Z</time>
      </trkpt>
      <trkpt lat="44.22475" lon="3.50058">
        <ele>1160</ele>
        <time>2015-08-22T15:45:38.493Z</time>
      </trkpt>
      <trkpt lat="44.22468" lon="3.50064">
        <ele>1158.7</ele>
        <time>2015-08-22T15:45:45.533Z</time>
      </trkpt>
      <trkpt lat="44.22466" lon="3.50064">
        <ele>1158.6</ele>
        <time>2015-08-22T15:45:46.489Z</time>
      </trkpt>
      <trkpt lat="44.22459" lon="3.50068">
        <ele>1157</ele>
        <time>2015-08-22T15:45:53.552Z</time>
      </trkpt>
      <trkpt lat="44.22458" lon="3.50069">
        <ele>1156.8</ele>
        <time>2015-08-22T15:45:54.493Z</time>
      </trkpt>
      <trkpt lat="44.2245" lon="3.50076">
        <ele>1155.7</ele>
        <time>2015-08-22T15:46:02.543Z</time>
      </trkpt>
      <trkpt lat="44.22449" lon="3.50076">
        <ele>1155.4</ele>
        <time>2015-08-22T15:46:03.494Z</time>
      </trkpt>
      <trkpt lat="44.22446" lon="3.50065">
        <ele>1155.1</ele>
        <time>2015-08-22T15:46:11.545Z</time>
      </trkpt>
      <trkpt lat="44.22446" lon="3.50063">
        <ele>1155</ele>
        <time>2015-08-22T15:46:12.491Z</time>
      </trkpt>
      <trkpt lat="44.22437" lon="3.50059">
        <ele>1153.5</ele>
        <time>2015-08-22T15:46:20.721Z</time>
      </trkpt>
      <trkpt lat="44.22436" lon="3.50059">
        <ele>1153.2</ele>
        <time>2015-08-22T15:46:21.496Z</time>
      </trkpt>
      <trkpt lat="44.2243" lon="3.50051">
        <ele>1148.9</ele>
        <time>2015-08-22T15:46:34.533Z</time>
      </trkpt>
      <trkpt lat="44.22429" lon="3.5005">
        <ele>1148.7</ele>
        <time>2015-08-22T15:46:35.498Z</time>
      </trkpt>
      <trkpt lat="44.22422" lon="3.50044">
        <ele>1145.9</ele>
        <time>2015-08-22T15:46:46.528Z</time>
      </trkpt>
      <trkpt lat="44.22421" lon="3.50043">
        <ele>1145.7</ele>
        <time>2015-08-22T15:46:47.490Z</time>
      </trkpt>
      <trkpt lat="44.22414" lon="3.50038">
        <ele>1145.2</ele>
        <time>2015-08-22T15:46:54.565Z</time>
      </trkpt>
      <trkpt lat="44.22413" lon="3.50038">
        <ele>1145.1</ele>
        <time>2015-08-22T15:46:55.521Z</time>
      </trkpt>
      <trkpt lat="44.22406" lon="3.5003">
        <ele>1144.5</ele>
        <time>2015-08-22T15:47:06.533Z</time>
      </trkpt>
      <trkpt lat="44.22407" lon="3.50028">
        <ele>1144.6</ele>
        <time>2015-08-22T15:47:07.498Z</time>
      </trkpt>
      <trkpt lat="44.22408" lon="3.50016">
        <ele>1146</ele>
        <time>2015-08-22T15:47:21.597Z</time>
      </trkpt>
      <trkpt lat="44.22408" lon="3.50015">
        <ele>1146.1</ele>
        <time>2015-08-22T15:47:22.495Z</time>
      </trkpt>
      <trkpt lat="44.2241" lon="3.50003">
        <ele>1147.3</ele>
        <time>2015-08-22T15:47:39.543Z</time>
      </trkpt>
      <trkpt lat="44.2241" lon="3.50002">
        <ele>1147.5</ele>
        <time>2015-08-22T15:47:40.497Z</time>
      </trkpt>
      <trkpt lat="44.22409" lon="3.4999">
        <ele>1148.1</ele>
        <time>2015-08-22T15:47:47.547Z</time>
      </trkpt>
      <trkpt lat="44.22409" lon="3.49989">
        <ele>1148.2</ele>
        <time>2015-08-22T15:47:48.498Z</time>
      </trkpt>
      <trkpt lat="44.22409" lon="3.49977">
        <ele>1149.1</ele>
        <time>2015-08-22T15:47:56.573Z</time>
      </trkpt>
      <trkpt lat="44.22409" lon="3.49976">
        <ele>1149.3</ele>
        <time>2015-08-22T15:47:57.494Z</time>
      </trkpt>
      <trkpt lat="44.22406" lon="3.49965">
        <ele>1150.7</ele>
        <time>2015-08-22T15:48:05.580Z</time>
      </trkpt>
      <trkpt lat="44.22405" lon="3.49964">
        <ele>1150.8</ele>
        <time>2015-08-22T15:48:06.584Z</time>
      </trkpt>
      <trkpt lat="44.22403" lon="3.49953">
        <ele>1151.6</ele>
        <time>2015-08-22T15:48:17.537Z</time>
      </trkpt>
      <trkpt lat="44.22402" lon="3.49952">
        <ele>1151.7</ele>
        <time>2015-08-22T15:48:18.526Z</time>
      </trkpt>
      <trkpt lat="44.22402" lon="3.49939">
        <ele>1152.6</ele>
        <time>2015-08-22T15:48:28.545Z</time>
      </trkpt>
      <trkpt lat="44.22403" lon="3.49938">
        <ele>1152.8</ele>
        <time>2015-08-22T15:48:29.497Z</time>
      </trkpt>
      <trkpt lat="44.22401" lon="3.49928">
        <ele>1153.4</ele>
        <time>2015-08-22T15:48:36.528Z</time>
      </trkpt>
      <trkpt lat="44.22401" lon="3.49926">
        <ele>1153.4</ele>
        <time>2015-08-22T15:48:37.494Z</time>
      </trkpt>
      <trkpt lat="44.224" lon="3.49914">
        <ele>1153.7</ele>
        <time>2015-08-22T15:48:44.553Z</time>
      </trkpt>
      <trkpt lat="44.224" lon="3.49913">
        <ele>1153.9</ele>
        <time>2015-08-22T15:48:45.491Z</time>
      </trkpt>
      <trkpt lat="44.22401" lon="3.49902">
        <ele>1156.2</ele>
        <time>2015-08-22T15:48:55.541Z</time>
      </trkpt>
      <trkpt lat="44.22401" lon="3.499">
        <ele>1156.4</ele>
        <time>2015-08-22T15:48:56.493Z</time>
      </trkpt>
      <trkpt lat="44.22399" lon="3.49889">
        <ele>1157.8</ele>
        <time>2015-08-22T15:49:04.536Z</time>
      </trkpt>
      <trkpt lat="44.22399" lon="3.49887">
        <ele>1157.8</ele>
        <time>2015-08-22T15:49:05.497Z</time>
      </trkpt>
      <trkpt lat="44.22395" lon="3.49876">
        <ele>1158.5</ele>
        <time>2015-08-22T15:49:12.562Z</time>
      </trkpt>
      <trkpt lat="44.22395" lon="3.49874">
        <ele>1158.6</ele>
        <time>2015-08-22T15:49:13.507Z</time>
      </trkpt>
      <trkpt lat="44.22394" lon="3.49862">
        <ele>1159.2</ele>
        <time>2015-08-22T15:49:21.536Z</time>
      </trkpt>
      <trkpt lat="44.22395" lon="3.4986">
        <ele>1159.2</ele>
        <time>2015-08-22T15:49:22.499Z</time>
      </trkpt>
      <trkpt lat="44.22394" lon="3.49849">
        <ele>1157</ele>
        <time>2015-08-22T15:49:30.585Z</time>
      </trkpt>
      <trkpt lat="44.22395" lon="3.49847">
        <ele>1156.5</ele>
        <time>2015-08-22T15:49:31.491Z</time>
      </trkpt>
      <trkpt lat="44.22397" lon="3.49836">
        <ele>1154.9</ele>
        <time>2015-08-22T15:49:38.533Z</time>
      </trkpt>
      <trkpt lat="44.22397" lon="3.49834">
        <ele>1154.6</ele>
        <time>2015-08-22T15:49:39.494Z</time>
      </trkpt>
      <trkpt lat="44.22401" lon="3.49823">
        <ele>1153.1</ele>
        <time>2015-08-22T15:49:49.544Z</time>
      </trkpt>
      <trkpt lat="44.22401" lon="3.49823">
        <ele>1153.2</ele>
        <time>2015-08-22T15:49:50.496Z</time>
      </trkpt>
      <trkpt lat="44.22407" lon="3.49815">
        <ele>1150.5</ele>
        <time>2015-08-22T15:50:27.578Z</time>
      </trkpt>
      <trkpt lat="44.22407" lon="3.49814">
        <ele>1150.4</ele>
        <time>2015-08-22T15:50:28.526Z</time>
      </trkpt>
      <trkpt lat="44.22408" lon="3.49803">
        <ele>1150.1</ele>
        <time>2015-08-22T15:50:33.525Z</time>
      </trkpt>
      <trkpt lat="44.22409" lon="3.49801">
        <ele>1150.1</ele>
        <time>2015-08-22T15:50:34.492Z</time>
      </trkpt>
      <trkpt lat="44.22412" lon="3.49791">
        <ele>1150.1</ele>
        <time>2015-08-22T15:50:40.536Z</time>
      </trkpt>
      <trkpt lat="44.22413" lon="3.49789">
        <ele>1150.2</ele>
        <time>2015-08-22T15:50:41.492Z</time>
      </trkpt>
      <trkpt lat="44.22416" lon="3.49778">
        <ele>1150.8</ele>
        <time>2015-08-22T15:50:48.539Z</time>
      </trkpt>
      <trkpt lat="44.22416" lon="3.49776">
        <ele>1150.8</ele>
        <time>2015-08-22T15:50:49.502Z</time>
      </trkpt>
      <trkpt lat="44.22417" lon="3.49765">
        <ele>1151.5</ele>
        <time>2015-08-22T15:50:56.542Z</time>
      </trkpt>
      <trkpt lat="44.22418" lon="3.49764">
        <ele>1151.9</ele>
        <time>2015-08-22T15:50:57.519Z</time>
      </trkpt>
      <trkpt lat="44.22421" lon="3.49754">
        <ele>1152.5</ele>
        <time>2015-08-22T15:51:04.530Z</time>
      </trkpt>
      <trkpt lat="44.22421" lon="3.49752">
        <ele>1152.6</ele>
        <time>2015-08-22T15:51:05.538Z</time>
      </trkpt>
      <trkpt lat="44.22423" lon="3.4974">
        <ele>1153</ele>
        <time>2015-08-22T15:51:12.536Z</time>
      </trkpt>
      <trkpt lat="44.22423" lon="3.49738">
        <ele>1153</ele>
        <time>2015-08-22T15:51:13.494Z</time>
      </trkpt>
      <trkpt lat="44.22424" lon="3.49726">
        <ele>1152.6</ele>
        <time>2015-08-22T15:51:20.535Z</time>
      </trkpt>
      <trkpt lat="44.22424" lon="3.49725">
        <ele>1152.7</ele>
        <time>2015-08-22T15:51:21.503Z</time>
      </trkpt>
      <trkpt lat="44.22421" lon="3.49714">
        <ele>1152.8</ele>
        <time>2015-08-22T15:51:28.537Z</time>
      </trkpt>
      <trkpt lat="44.22421" lon="3.49712">
        <ele>1152.7</ele>
        <time>2015-08-22T15:51:29.490Z</time>
      </trkpt>
      <trkpt lat="44.22417" lon="3.49703">
        <ele>1150.9</ele>
        <time>2015-08-22T15:51:35.532Z</time>
      </trkpt>
      <trkpt lat="44.22416" lon="3.49701">
        <ele>1150.6</ele>
        <time>2015-08-22T15:51:36.506Z</time>
      </trkpt>
      <trkpt lat="44.22415" lon="3.49689">
        <ele>1148.6</ele>
        <time>2015-08-22T15:51:43.577Z</time>
      </trkpt>
      <trkpt lat="44.22414" lon="3.49687">
        <ele>1148.3</ele>
        <time>2015-08-22T15:51:44.505Z</time>
      </trkpt>
      <trkpt lat="44.22409" lon="3.49677">
        <ele>1145.8</ele>
        <time>2015-08-22T15:51:52.621Z</time>
      </trkpt>
      <trkpt lat="44.22408" lon="3.49676">
        <ele>1145.4</ele>
        <time>2015-08-22T15:51:53.493Z</time>
      </trkpt>
      <trkpt lat="44.22401" lon="3.49671">
        <ele>1143.9</ele>
        <time>2015-08-22T15:51:59.600Z</time>
      </trkpt>
      <trkpt lat="44.224" lon="3.4967">
        <ele>1144</ele>
        <time>2015-08-22T15:52:00.617Z</time>
      </trkpt>
      <trkpt lat="44.22393" lon="3.49663">
        <ele>1144.3</ele>
        <time>2015-08-22T15:52:09.550Z</time>
      </trkpt>
      <trkpt lat="44.22393" lon="3.49662">
        <ele>1144.3</ele>
        <time>2015-08-22T15:52:10.492Z</time>
      </trkpt>
      <trkpt lat="44.22386" lon="3.49657">
        <ele>1143.6</ele>
        <time>2015-08-22T15:52:27.535Z</time>
      </trkpt>
      <trkpt lat="44.22385" lon="3.49655">
        <ele>1143.6</ele>
        <time>2015-08-22T15:52:28.493Z</time>
      </trkpt>
      <trkpt lat="44.22378" lon="3.49649">
        <ele>1143.3</ele>
        <time>2015-08-22T15:52:36.537Z</time>
      </trkpt>
      <trkpt lat="44.22377" lon="3.49649">
        <ele>1143.3</ele>
        <time>2015-08-22T15:52:37.520Z</time>
      </trkpt>
      <trkpt lat="44.22369" lon="3.49649">
        <ele>1142.6</ele>
        <time>2015-08-22T15:52:45.647Z</time>
      </trkpt>
      <trkpt lat="44.22368" lon="3.49649">
        <ele>1142.6</ele>
        <time>2015-08-22T15:52:46.492Z</time>
      </trkpt>
      <trkpt lat="44.22363" lon="3.49639">
        <ele>1141.9</ele>
        <time>2015-08-22T15:53:00.535Z</time>
      </trkpt>
      <trkpt lat="44.22363" lon="3.49637">
        <ele>1141.7</ele>
        <time>2015-08-22T15:53:01.493Z</time>
      </trkpt>
      <trkpt lat="44.22355" lon="3.49632">
        <ele>1140.4</ele>
        <time>2015-08-22T15:53:10.927Z</time>
      </trkpt>
      <trkpt lat="44.22353" lon="3.49632">
        <ele>1140.2</ele>
        <time>2015-08-22T15:53:11.497Z</time>
      </trkpt>
      <trkpt lat="44.22345" lon="3.49627">
        <ele>1139.4</ele>
        <time>2015-08-22T15:53:26.564Z</time>
      </trkpt>
      <trkpt lat="44.22344" lon="3.49627">
        <ele>1139.3</ele>
        <time>2015-08-22T15:53:27.523Z</time>
      </trkpt>
      <trkpt lat="44.22336" lon="3.49622">
        <ele>1138.7</ele>
        <time>2015-08-22T15:53:34.564Z</time>
      </trkpt>
      <trkpt lat="44.22335" lon="3.49622">
        <ele>1138.6</ele>
        <time>2015-08-22T15:53:35.517Z</time>
      </trkpt>
      <trkpt lat="44.22327" lon="3.49619">
        <ele>1138.3</ele>
        <time>2015-08-22T15:53:42.567Z</time>
      </trkpt>
      <trkpt lat="44.22326" lon="3.49618">
        <ele>1138.3</ele>
        <time>2015-08-22T15:53:43.520Z</time>
      </trkpt>
      <trkpt lat="44.22319" lon="3.49614">
        <ele>1137.7</ele>
        <time>2015-08-22T15:53:49.586Z</time>
      </trkpt>
      <trkpt lat="44.22317" lon="3.49613">
        <ele>1137.6</ele>
        <time>2015-08-22T15:53:50.495Z</time>
      </trkpt>
      <trkpt lat="44.22309" lon="3.4961">
        <ele>1137.2</ele>
        <time>2015-08-22T15:53:57.545Z</time>
      </trkpt>
      <trkpt lat="44.22309" lon="3.4961">
        <ele>1137.3</ele>
        <time>2015-08-22T15:53:58.499Z</time>
      </trkpt>
      <trkpt lat="44.223" lon="3.49607">
        <ele>1134.9</ele>
        <time>2015-08-22T15:54:13.571Z</time>
      </trkpt>
      <trkpt lat="44.22299" lon="3.49607">
        <ele>1134.6</ele>
        <time>2015-08-22T15:54:14.515Z</time>
      </trkpt>
      <trkpt lat="44.2229" lon="3.49606">
        <ele>1133</ele>
        <time>2015-08-22T15:54:22.543Z</time>
      </trkpt>
      <trkpt lat="44.22289" lon="3.49605">
        <ele>1132.8</ele>
        <time>2015-08-22T15:54:23.494Z</time>
      </trkpt>
      <trkpt lat="44.22285" lon="3.49595">
        <ele>1130.9</ele>
        <time>2015-08-22T15:54:36.534Z</time>
      </trkpt>
      <trkpt lat="44.22284" lon="3.49594">
        <ele>1130.7</ele>
        <time>2015-08-22T15:54:37.494Z</time>
      </trkpt>
      <trkpt lat="44.22277" lon="3.49589">
        <ele>1128.7</ele>
        <time>2015-08-22T15:54:46.543Z</time>
      </trkpt>
      <trkpt lat="44.22276" lon="3.49589">
        <ele>1128.4</ele>
        <time>2015-08-22T15:54:47.505Z</time>
      </trkpt>
      <trkpt lat="44.22268" lon="3.49586">
        <ele>1124.9</ele>
        <time>2015-08-22T15:55:02.539Z</time>
      </trkpt>
      <trkpt lat="44.22267" lon="3.49586">
        <ele>1124.7</ele>
        <time>2015-08-22T15:55:03.490Z</time>
      </trkpt>
      <trkpt lat="44.22258" lon="3.49587">
        <ele>1123</ele>
        <time>2015-08-22T15:55:11.553Z</time>
      </trkpt>
      <trkpt lat="44.22257" lon="3.49587">
        <ele>1122.7</ele>
        <time>2015-08-22T15:55:12.497Z</time>
      </trkpt>
      <trkpt lat="44.2225" lon="3.49592">
        <ele>1121.4</ele>
        <time>2015-08-22T15:55:18.542Z</time>
      </trkpt>
      <trkpt lat="44.22249" lon="3.49593">
        <ele>1121.2</ele>
        <time>2015-08-22T15:55:19.492Z</time>
      </trkpt>
      <trkpt lat="44.22242" lon="3.49601">
        <ele>1119.6</ele>
        <time>2015-08-22T15:55:26.543Z</time>
      </trkpt>
      <trkpt lat="44.22242" lon="3.49603">
        <ele>1119.5</ele>
        <time>2015-08-22T15:55:27.504Z</time>
      </trkpt>
      <trkpt lat="44.22237" lon="3.49611">
        <ele>1117.9</ele>
        <time>2015-08-22T15:55:34.537Z</time>
      </trkpt>
      <trkpt lat="44.22236" lon="3.49612">
        <ele>1117.6</ele>
        <time>2015-08-22T15:55:35.505Z</time>
      </trkpt>
      <trkpt lat="44.22231" lon="3.49622">
        <ele>1116.8</ele>
        <time>2015-08-22T15:55:42.544Z</time>
      </trkpt>
      <trkpt lat="44.22231" lon="3.49623">
        <ele>1116.8</ele>
        <time>2015-08-22T15:55:43.496Z</time>
      </trkpt>
      <trkpt lat="44.2223" lon="3.49634">
        <ele>1117.5</ele>
        <time>2015-08-22T15:55:57.562Z</time>
      </trkpt>
      <trkpt lat="44.22231" lon="3.49636">
        <ele>1117.3</ele>
        <time>2015-08-22T15:55:58.518Z</time>
      </trkpt>
      <trkpt lat="44.22233" lon="3.49647">
        <ele>1117.7</ele>
        <time>2015-08-22T15:56:05.570Z</time>
      </trkpt>
      <trkpt lat="44.22234" lon="3.49648">
        <ele>1117.8</ele>
        <time>2015-08-22T15:56:06.501Z</time>
      </trkpt>
      <trkpt lat="44.2224" lon="3.49655">
        <ele>1118.4</ele>
        <time>2015-08-22T15:56:12.544Z</time>
      </trkpt>
      <trkpt lat="44.22241" lon="3.49656">
        <ele>1118.5</ele>
        <time>2015-08-22T15:56:13.507Z</time>
      </trkpt>
      <trkpt lat="44.22248" lon="3.49663">
        <ele>1119.3</ele>
        <time>2015-08-22T15:56:20.582Z</time>
      </trkpt>
      <trkpt lat="44.22249" lon="3.49663">
        <ele>1119.3</ele>
        <time>2015-08-22T15:56:21.488Z</time>
      </trkpt>
      <trkpt lat="44.22257" lon="3.49669">
        <ele>1120.2</ele>
        <time>2015-08-22T15:56:28.551Z</time>
      </trkpt>
      <trkpt lat="44.22258" lon="3.4967">
        <ele>1120.3</ele>
        <time>2015-08-22T15:56:29.493Z</time>
      </trkpt>
      <trkpt lat="44.22264" lon="3.49678">
        <ele>1119.9</ele>
        <time>2015-08-22T15:56:36.534Z</time>
      </trkpt>
      <trkpt lat="44.22265" lon="3.49679">
        <ele>1119.9</ele>
        <time>2015-08-22T15:56:37.494Z</time>
      </trkpt>
      <trkpt lat="44.22272" lon="3.49686">
        <ele>1119.9</ele>
        <time>2015-08-22T15:56:44.970Z</time>
      </trkpt>
      <trkpt lat="44.22273" lon="3.49687">
        <ele>1120</ele>
        <time>2015-08-22T15:56:45.493Z</time>
      </trkpt>
      <trkpt lat="44.22279" lon="3.49694">
        <ele>1120.5</ele>
        <time>2015-08-22T15:56:51.704Z</time>
      </trkpt>
      <trkpt lat="44.2228" lon="3.49696">
        <ele>1120.7</ele>
        <time>2015-08-22T15:56:52.500Z</time>
      </trkpt>
      <trkpt lat="44.22286" lon="3.49705">
        <ele>1122.2</ele>
        <time>2015-08-22T15:57:00.576Z</time>
      </trkpt>
      <trkpt lat="44.22286" lon="3.49706">
        <ele>1122.4</ele>
        <time>2015-08-22T15:57:01.507Z</time>
      </trkpt>
      <trkpt lat="44.22285" lon="3.49717">
        <ele>1124.5</ele>
        <time>2015-08-22T15:57:11.530Z</time>
      </trkpt>
      <trkpt lat="44.22284" lon="3.49719">
        <ele>1124.4</ele>
        <time>2015-08-22T15:57:12.492Z</time>
      </trkpt>
      <trkpt lat="44.22278" lon="3.49725">
        <ele>1124.3</ele>
        <time>2015-08-22T15:57:18.548Z</time>
      </trkpt>
      <trkpt lat="44.22276" lon="3.49726">
        <ele>1124.3</ele>
        <time>2015-08-22T15:57:19.493Z</time>
      </trkpt>
      <trkpt lat="44.22273" lon="3.49737">
        <ele>1124.8</ele>
        <time>2015-08-22T15:57:25.541Z</time>
      </trkpt>
      <trkpt lat="44.22273" lon="3.4974">
        <ele>1125.3</ele>
        <time>2015-08-22T15:57:26.496Z</time>
      </trkpt>
      <trkpt lat="44.22273" lon="3.4975">
        <ele>1125.8</ele>
        <time>2015-08-22T15:57:31.549Z</time>
      </trkpt>
      <trkpt lat="44.22273" lon="3.49752">
        <ele>1126</ele>
        <time>2015-08-22T15:57:32.492Z</time>
      </trkpt>
      <trkpt lat="44.22273" lon="3.49763">
        <ele>1126.4</ele>
        <time>2015-08-22T15:57:38.929Z</time>
      </trkpt>
      <trkpt lat="44.22272" lon="3.49765">
        <ele>1126.8</ele>
        <time>2015-08-22T15:57:39.493Z</time>
      </trkpt>
      <trkpt lat="44.22271" lon="3.49776">
        <ele>1127.2</ele>
        <time>2015-08-22T15:57:52.976Z</time>
      </trkpt>
      <trkpt lat="44.2227" lon="3.49778">
        <ele>1127.3</ele>
        <time>2015-08-22T15:57:53.493Z</time>
      </trkpt>
      <trkpt lat="44.22271" lon="3.4979">
        <ele>1127.3</ele>
        <time>2015-08-22T15:58:02.544Z</time>
      </trkpt>
      <trkpt lat="44.22272" lon="3.49792">
        <ele>1127.2</ele>
        <time>2015-08-22T15:58:03.493Z</time>
      </trkpt>
      <trkpt lat="44.22275" lon="3.49803">
        <ele>1126.5</ele>
        <time>2015-08-22T15:58:11.544Z</time>
      </trkpt>
      <trkpt lat="44.22275" lon="3.49805">
        <ele>1126.3</ele>
        <time>2015-08-22T15:58:12.498Z</time>
      </trkpt>
      <trkpt lat="44.22277" lon="3.49817">
        <ele>1125.3</ele>
        <time>2015-08-22T15:58:18.541Z</time>
      </trkpt>
      <trkpt lat="44.22277" lon="3.49818">
        <ele>1125</ele>
        <time>2015-08-22T15:58:19.496Z</time>
      </trkpt>
      <trkpt lat="44.22278" lon="3.49829">
        <ele>1124.1</ele>
        <time>2015-08-22T15:58:25.547Z</time>
      </trkpt>
      <trkpt lat="44.22278" lon="3.49831">
        <ele>1124.1</ele>
        <time>2015-08-22T15:58:26.495Z</time>
      </trkpt>
      <trkpt lat="44.22279" lon="3.49842">
        <ele>1123.4</ele>
        <time>2015-08-22T15:58:32.539Z</time>
      </trkpt>
      <trkpt lat="44.2228" lon="3.49844">
        <ele>1123.3</ele>
        <time>2015-08-22T15:58:33.489Z</time>
      </trkpt>
      <trkpt lat="44.22278" lon="3.49856">
        <ele>1124.2</ele>
        <time>2015-08-22T15:58:43.544Z</time>
      </trkpt>
      <trkpt lat="44.22278" lon="3.49857">
        <ele>1124.3</ele>
        <time>2015-08-22T15:58:44.499Z</time>
      </trkpt>
      <trkpt lat="44.2228" lon="3.49868">
        <ele>1124.7</ele>
        <time>2015-08-22T15:58:53.543Z</time>
      </trkpt>
      <trkpt lat="44.22281" lon="3.49869">
        <ele>1124.8</ele>
        <time>2015-08-22T15:58:54.496Z</time>
      </trkpt>
      <trkpt lat="44.22283" lon="3.4988">
        <ele>1125.9</ele>
        <time>2015-08-22T15:59:02.548Z</time>
      </trkpt>
      <trkpt lat="44.22284" lon="3.49882">
        <ele>1126</ele>
        <time>2015-08-22T15:59:03.496Z</time>
      </trkpt>
      <trkpt lat="44.22287" lon="3.49893">
        <ele>1127.9</ele>
        <time>2015-08-22T15:59:12.555Z</time>
      </trkpt>
      <trkpt lat="44.22288" lon="3.49894">
        <ele>1128.1</ele>
        <time>2015-08-22T15:59:13.496Z</time>
      </trkpt>
      <trkpt lat="44.22295" lon="3.499">
        <ele>1127.8</ele>
        <time>2015-08-22T15:59:24.548Z</time>
      </trkpt>
      <trkpt lat="44.22296" lon="3.499">
        <ele>1127.6</ele>
        <time>2015-08-22T15:59:25.493Z</time>
      </trkpt>
      <trkpt lat="44.223" lon="3.4991">
        <ele>1124.2</ele>
        <time>2015-08-22T15:59:52.540Z</time>
      </trkpt>
      <trkpt lat="44.223" lon="3.49911">
        <ele>1124.1</ele>
        <time>2015-08-22T15:59:53.491Z</time>
      </trkpt>
      <trkpt lat="44.22299" lon="3.49923">
        <ele>1123.2</ele>
        <time>2015-08-22T16:00:08.551Z</time>
      </trkpt>
      <trkpt lat="44.22298" lon="3.49923">
        <ele>1123.2</ele>
        <time>2015-08-22T16:00:09.494Z</time>
      </trkpt>
      <trkpt lat="44.22294" lon="3.49933">
        <ele>1123</ele>
        <time>2015-08-22T16:00:18.550Z</time>
      </trkpt>
      <trkpt lat="44.22293" lon="3.49934">
        <ele>1122.7</ele>
        <time>2015-08-22T16:00:19.496Z</time>
      </trkpt>
      <trkpt lat="44.22291" lon="3.49946">
        <ele>1122.2</ele>
        <time>2015-08-22T16:00:27.548Z</time>
      </trkpt>
      <trkpt lat="44.22291" lon="3.49948">
        <ele>1122.2</ele>
        <time>2015-08-22T16:00:28.489Z</time>
      </trkpt>
      <trkpt lat="44.22291" lon="3.4996">
        <ele>1122.5</ele>
        <time>2015-08-22T16:00:35.556Z</time>
      </trkpt>
      <trkpt lat="44.22292" lon="3.49962">
        <ele>1122.7</ele>
        <time>2015-08-22T16:00:36.494Z</time>
      </trkpt>
      <trkpt lat="44.22297" lon="3.49971">
        <ele>1123.5</ele>
        <time>2015-08-22T16:00:41.563Z</time>
      </trkpt>
      <trkpt lat="44.22298" lon="3.49972">
        <ele>1123.8</ele>
        <time>2015-08-22T16:00:42.492Z</time>
      </trkpt>
      <trkpt lat="44.223" lon="3.49983">
        <ele>1124.9</ele>
        <time>2015-08-22T16:00:49.584Z</time>
      </trkpt>
      <trkpt lat="44.223" lon="3.49985">
        <ele>1124.9</ele>
        <time>2015-08-22T16:00:50.521Z</time>
      </trkpt>
      <trkpt lat="44.22294" lon="3.49994">
        <ele>1127</ele>
        <time>2015-08-22T16:01:01.542Z</time>
      </trkpt>
      <trkpt lat="44.22294" lon="3.49995">
        <ele>1127.1</ele>
        <time>2015-08-22T16:01:02.493Z</time>
      </trkpt>
      <trkpt lat="44.22291" lon="3.50007">
        <ele>1128.8</ele>
        <time>2015-08-22T16:01:12.071Z</time>
      </trkpt>
      <trkpt lat="44.22292" lon="3.50008">
        <ele>1129</ele>
        <time>2015-08-22T16:01:12.494Z</time>
      </trkpt>
      <trkpt lat="44.22296" lon="3.50017">
        <ele>1129.2</ele>
        <time>2015-08-22T16:01:19.553Z</time>
      </trkpt>
      <trkpt lat="44.22296" lon="3.50019">
        <ele>1129.1</ele>
        <time>2015-08-22T16:01:20.494Z</time>
      </trkpt>
      <trkpt lat="44.22303" lon="3.50025">
        <ele>1128.1</ele>
        <time>2015-08-22T16:01:33.556Z</time>
      </trkpt>
      <trkpt lat="44.22304" lon="3.50025">
        <ele>1128</ele>
        <time>2015-08-22T16:01:34.503Z</time>
      </trkpt>
      <trkpt lat="44.22312" lon="3.50032">
        <ele>1127.1</ele>
        <time>2015-08-22T16:01:44.544Z</time>
      </trkpt>
      <trkpt lat="44.22312" lon="3.50033">
        <ele>1127.1</ele>
        <time>2015-08-22T16:01:45.495Z</time>
      </trkpt>
      <trkpt lat="44.22314" lon="3.50044">
        <ele>1126.7</ele>
        <time>2015-08-22T16:01:56.067Z</time>
      </trkpt>
      <trkpt lat="44.22314" lon="3.50045">
        <ele>1126.7</ele>
        <time>2015-08-22T16:01:56.490Z</time>
      </trkpt>
      <trkpt lat="44.22316" lon="3.50057">
        <ele>1127.3</ele>
        <time>2015-08-22T16:02:05.600Z</time>
      </trkpt>
      <trkpt lat="44.22317" lon="3.5006">
        <ele>1127.5</ele>
        <time>2015-08-22T16:02:06.493Z</time>
      </trkpt>
      <trkpt lat="44.22323" lon="3.50069">
        <ele>1126.9</ele>
        <time>2015-08-22T16:02:11.557Z</time>
      </trkpt>
      <trkpt lat="44.22324" lon="3.50071">
        <ele>1126.7</ele>
        <time>2015-08-22T16:02:12.496Z</time>
      </trkpt>
      <trkpt lat="44.22332" lon="3.50076">
        <ele>1127.4</ele>
        <time>2015-08-22T16:02:17.553Z</time>
      </trkpt>
      <trkpt lat="44.22333" lon="3.50077">
        <ele>1127.7</ele>
        <time>2015-08-22T16:02:18.494Z</time>
      </trkpt>
      <trkpt lat="44.22341" lon="3.50078">
        <ele>1131.1</ele>
        <time>2015-08-22T16:02:25.550Z</time>
      </trkpt>
      <trkpt lat="44.22342" lon="3.50077">
        <ele>1130.7</ele>
        <time>2015-08-22T16:02:26.503Z</time>
      </trkpt>
      <trkpt lat="44.22351" lon="3.50077">
        <ele>1132.2</ele>
        <time>2015-08-22T16:02:37.577Z</time>
      </trkpt>
      <trkpt lat="44.22352" lon="3.50078">
        <ele>1132.5</ele>
        <time>2015-08-22T16:02:38.505Z</time>
      </trkpt>
      <trkpt lat="44.22358" lon="3.50085">
        <ele>1136.7</ele>
        <time>2015-08-22T16:02:50.604Z</time>
      </trkpt>
      <trkpt lat="44.22359" lon="3.50086">
        <ele>1137.1</ele>
        <time>2015-08-22T16:02:51.500Z</time>
      </trkpt>
      <trkpt lat="44.22366" lon="3.5009">
        <ele>1139.9</ele>
        <time>2015-08-22T16:02:59.542Z</time>
      </trkpt>
      <trkpt lat="44.22368" lon="3.5009">
        <ele>1140.2</ele>
        <time>2015-08-22T16:03:00.505Z</time>
      </trkpt>
      <trkpt lat="44.22376" lon="3.50087">
        <ele>1142.7</ele>
        <time>2015-08-22T16:03:08.692Z</time>
      </trkpt>
      <trkpt lat="44.22377" lon="3.50086">
        <ele>1143</ele>
        <time>2015-08-22T16:03:09.491Z</time>
      </trkpt>
      <trkpt lat="44.22385" lon="3.50084">
        <ele>1145.5</ele>
        <time>2015-08-22T16:03:20.527Z</time>
      </trkpt>
      <trkpt lat="44.22386" lon="3.50084">
        <ele>1145.7</ele>
        <time>2015-08-22T16:03:21.492Z</time>
      </trkpt>
      <trkpt lat="44.22395" lon="3.50088">
        <ele>1147.7</ele>
        <time>2015-08-22T16:03:30.536Z</time>
      </trkpt>
      <trkpt lat="44.22395" lon="3.50088">
        <ele>1148</ele>
        <time>2015-08-22T16:03:31.683Z</time>
      </trkpt>
      <trkpt lat="44.22401" lon="3.50097">
        <ele>1150.6</ele>
        <time>2015-08-22T16:03:42.548Z</time>
      </trkpt>
      <trkpt lat="44.22401" lon="3.50097">
        <ele>1150.8</ele>
        <time>2015-08-22T16:03:43.497Z</time>
      </trkpt>
      <trkpt lat="44.22405" lon="3.50108">
        <ele>1150.9</ele>
        <time>2015-08-22T16:03:52.533Z</time>
      </trkpt>
      <trkpt lat="44.22405" lon="3.50109">
        <ele>1150.8</ele>
        <time>2015-08-22T16:03:53.494Z</time>
      </trkpt>
      <trkpt lat="44.22412" lon="3.50117">
        <ele>1152.1</ele>
        <time>2015-08-22T16:04:04.533Z</time>
      </trkpt>
      <trkpt lat="44.22413" lon="3.50116">
        <ele>1152.2</ele>
        <time>2015-08-22T16:04:05.491Z</time>
      </trkpt>
      <trkpt lat="44.22421" lon="3.50114">
        <ele>1153.2</ele>
        <time>2015-08-22T16:04:13.543Z</time>
      </trkpt>
      <trkpt lat="44.22422" lon="3.50114">
        <ele>1153.2</ele>
        <time>2015-08-22T16:04:14.495Z</time>
      </trkpt>
      <trkpt lat="44.2243" lon="3.50116">
        <ele>1154</ele>
        <time>2015-08-22T16:04:24.909Z</time>
      </trkpt>
      <trkpt lat="44.22431" lon="3.50118">
        <ele>1154</ele>
        <time>2015-08-22T16:04:25.507Z</time>
      </trkpt>
      <trkpt lat="44.22436" lon="3.50126">
        <ele>1154.4</ele>
        <time>2015-08-22T16:04:32.525Z</time>
      </trkpt>
      <trkpt lat="44.22437" lon="3.50127">
        <ele>1154.5</ele>
        <time>2015-08-22T16:04:33.489Z</time>
      </trkpt>
      <trkpt lat="44.22445" lon="3.50133">
        <ele>1155.8</ele>
        <time>2015-08-22T16:04:47.947Z</time>
      </trkpt>
      <trkpt lat="44.22445" lon="3.50133">
        <ele>1155.8</ele>
        <time>2015-08-22T16:04:48.496Z</time>
      </trkpt>
      <trkpt lat="44.22453" lon="3.50138">
        <ele>1156.5</ele>
        <time>2015-08-22T16:04:55.569Z</time>
      </trkpt>
      <trkpt lat="44.22454" lon="3.5014">
        <ele>1156.6</ele>
        <time>2015-08-22T16:04:56.518Z</time>
      </trkpt>
      <trkpt lat="44.22459" lon="3.50149">
        <ele>1156.8</ele>
        <time>2015-08-22T16:05:03.675Z</time>
      </trkpt>
      <trkpt lat="44.2246" lon="3.50151">
        <ele>1156.8</ele>
        <time>2015-08-22T16:05:04.489Z</time>
      </trkpt>
      <trkpt lat="44.22466" lon="3.50158">
        <ele>1157</ele>
        <time>2015-08-22T16:05:10.548Z</time>
      </trkpt>
      <trkpt lat="44.22467" lon="3.50159">
        <ele>1157</ele>
        <time>2015-08-22T16:05:11.491Z</time>
      </trkpt>
      <trkpt lat="44.22474" lon="3.50167">
        <ele>1156.7</ele>
        <time>2015-08-22T16:05:18.565Z</time>
      </trkpt>
      <trkpt lat="44.22475" lon="3.50167">
        <ele>1156.7</ele>
        <time>2015-08-22T16:05:19.494Z</time>
      </trkpt>
      <trkpt lat="44.2248" lon="3.50177">
        <ele>1157</ele>
        <time>2015-08-22T16:05:39.537Z</time>
      </trkpt>
      <trkpt lat="44.2248" lon="3.50178">
        <ele>1157</ele>
        <time>2015-08-22T16:05:40.497Z</time>
      </trkpt>
      <trkpt lat="44.22478" lon="3.50189">
        <ele>1157.5</ele>
        <time>2015-08-22T16:05:46.559Z</time>
      </trkpt>
      <trkpt lat="44.22478" lon="3.5019">
        <ele>1157.5</ele>
        <time>2015-08-22T16:05:47.526Z</time>
      </trkpt>
      <trkpt lat="44.22476" lon="3.50201">
        <ele>1157.7</ele>
        <time>2015-08-22T16:05:53.542Z</time>
      </trkpt>
      <trkpt lat="44.22475" lon="3.50203">
        <ele>1157.8</ele>
        <time>2015-08-22T16:05:54.505Z</time>
      </trkpt>
      <trkpt lat="44.22473" lon="3.50213">
        <ele>1157.9</ele>
        <time>2015-08-22T16:06:02.580Z</time>
      </trkpt>
      <trkpt lat="44.22473" lon="3.50215">
        <ele>1157.9</ele>
        <time>2015-08-22T16:06:03.503Z</time>
      </trkpt>
      <trkpt lat="44.2247" lon="3.50227">
        <ele>1159.2</ele>
        <time>2015-08-22T16:06:12.543Z</time>
      </trkpt>
      <trkpt lat="44.22469" lon="3.50228">
        <ele>1159.2</ele>
        <time>2015-08-22T16:06:13.496Z</time>
      </trkpt>
      <trkpt lat="44.22469" lon="3.50239">
        <ele>1159.7</ele>
        <time>2015-08-22T16:06:19.527Z</time>
      </trkpt>
      <trkpt lat="44.22469" lon="3.50241">
        <ele>1159.8</ele>
        <time>2015-08-22T16:06:20.492Z</time>
      </trkpt>
      <trkpt lat="44.22469" lon="3.50253">
        <ele>1161.5</ele>
        <time>2015-08-22T16:06:29.545Z</time>
      </trkpt>
      <trkpt lat="44.22469" lon="3.50254">
        <ele>1161.6</ele>
        <time>2015-08-22T16:06:30.494Z</time>
      </trkpt>
      <trkpt lat="44.22467" lon="3.50266">
        <ele>1162.1</ele>
        <time>2015-08-22T16:06:51.533Z</time>
      </trkpt>
      <trkpt lat="44.22467" lon="3.50268">
        <ele>1162</ele>
        <time>2015-08-22T16:06:52.491Z</time>
      </trkpt>
      <trkpt lat="44.22468" lon="3.5028">
        <ele>1160.7</ele>
        <time>2015-08-22T16:07:31.532Z</time>
      </trkpt>
      <trkpt lat="44.22468" lon="3.50281">
        <ele>1160.7</ele>
        <time>2015-08-22T16:07:32.493Z</time>
      </trkpt>
      <trkpt lat="44.22467" lon="3.50293">
        <ele>1160.9</ele>
        <time>2015-08-22T16:07:41.541Z</time>
      </trkpt>
      <trkpt lat="44.22466" lon="3.50294">
        <ele>1160.9</ele>
        <time>2015-08-22T16:07:42.495Z</time>
      </trkpt>
      <trkpt lat="44.22465" lon="3.50306">
        <ele>1160.7</ele>
        <time>2015-08-22T16:07:58.541Z</time>
      </trkpt>
      <trkpt lat="44.22465" lon="3.50308">
        <ele>1160.7</ele>
        <time>2015-08-22T16:07:59.490Z</time>
      </trkpt>
      <trkpt lat="44.22464" lon="3.50319">
        <ele>1161.1</ele>
        <time>2015-08-22T16:08:06.552Z</time>
      </trkpt>
      <trkpt lat="44.22464" lon="3.50321">
        <ele>1161.1</ele>
        <time>2015-08-22T16:08:07.495Z</time>
      </trkpt>
      <trkpt lat="44.22465" lon="3.50332">
        <ele>1161.1</ele>
        <time>2015-08-22T16:08:13.547Z</time>
      </trkpt>
      <trkpt lat="44.22465" lon="3.50333">
        <ele>1161.1</ele>
        <time>2015-08-22T16:08:14.493Z</time>
      </trkpt>
      <trkpt lat="44.22465" lon="3.50345">
        <ele>1160.9</ele>
        <time>2015-08-22T16:08:20.606Z</time>
      </trkpt>
      <trkpt lat="44.22465" lon="3.50346">
        <ele>1160.9</ele>
        <time>2015-08-22T16:08:21.493Z</time>
      </trkpt>
      <trkpt lat="44.22465" lon="3.50357">
        <ele>1160.5</ele>
        <time>2015-08-22T16:08:27.532Z</time>
      </trkpt>
      <trkpt lat="44.22465" lon="3.50359">
        <ele>1160.5</ele>
        <time>2015-08-22T16:08:28.496Z</time>
      </trkpt>
      <trkpt lat="44.22465" lon="3.50371">
        <ele>1159.6</ele>
        <time>2015-08-22T16:08:35.899Z</time>
      </trkpt>
      <trkpt lat="44.22465" lon="3.50373">
        <ele>1159.5</ele>
        <time>2015-08-22T16:08:36.518Z</time>
      </trkpt>
      <trkpt lat="44.22464" lon="3.50384">
        <ele>1158.8</ele>
        <time>2015-08-22T16:08:42.543Z</time>
      </trkpt>
      <trkpt lat="44.22464" lon="3.50386">
        <ele>1158.7</ele>
        <time>2015-08-22T16:08:43.506Z</time>
      </trkpt>
      <trkpt lat="44.22463" lon="3.50397">
        <ele>1158.1</ele>
        <time>2015-08-22T16:08:48.548Z</time>
      </trkpt>
      <trkpt lat="44.22462" lon="3.50399">
        <ele>1158</ele>
        <time>2015-08-22T16:08:49.495Z</time>
      </trkpt>
      <trkpt lat="44.22461" lon="3.5041">
        <ele>1157.7</ele>
        <time>2015-08-22T16:08:55.529Z</time>
      </trkpt>
      <trkpt lat="44.2246" lon="3.50412">
        <ele>1157.7</ele>
        <time>2015-08-22T16:08:56.517Z</time>
      </trkpt>
      <trkpt lat="44.22459" lon="3.50422">
        <ele>1157.5</ele>
        <time>2015-08-22T16:09:00.544Z</time>
      </trkpt>
      <trkpt lat="44.22458" lon="3.50425">
        <ele>1157.4</ele>
        <time>2015-08-22T16:09:01.494Z</time>
      </trkpt>
      <trkpt lat="44.22465" lon="3.50432">
        <ele>1158.9</ele>
        <time>2015-08-22T16:09:45.543Z</time>
      </trkpt>
      <trkpt lat="44.22465" lon="3.50434">
        <ele>1158.9</ele>
        <time>2015-08-22T16:09:46.494Z</time>
      </trkpt>
      <trkpt lat="44.22467" lon="3.50446">
        <ele>1158</ele>
        <time>2015-08-22T16:09:52.527Z</time>
      </trkpt>
      <trkpt lat="44.22467" lon="3.50448">
        <ele>1157.6</ele>
        <time>2015-08-22T16:09:53.757Z</time>
      </trkpt>
      <trkpt lat="44.22461" lon="3.50457">
        <ele>1154.7</ele>
        <time>2015-08-22T16:10:19.559Z</time>
      </trkpt>
      <trkpt lat="44.22461" lon="3.50459">
        <ele>1154.5</ele>
        <time>2015-08-22T16:10:20.502Z</time>
      </trkpt>
      <trkpt lat="44.2247" lon="3.50462">
        <ele>1155.1</ele>
        <time>2015-08-22T16:11:55.558Z</time>
      </trkpt>
      <trkpt lat="44.22471" lon="3.50462">
        <ele>1155.1</ele>
        <time>2015-08-22T16:11:56.503Z</time>
      </trkpt>
      <trkpt lat="44.22476" lon="3.50473">
        <ele>1152.3</ele>
        <time>2015-08-22T16:12:17.537Z</time>
      </trkpt>
      <trkpt lat="44.22476" lon="3.50474">
        <ele>1152.2</ele>
        <time>2015-08-22T16:12:18.492Z</time>
      </trkpt>
      <trkpt lat="44.22473" lon="3.50486">
        <ele>1150.4</ele>
        <time>2015-08-22T16:12:31.536Z</time>
      </trkpt>
      <trkpt lat="44.22473" lon="3.50487">
        <ele>1150.1</ele>
        <time>2015-08-22T16:12:32.532Z</time>
      </trkpt>
      <trkpt lat="44.22467" lon="3.50495">
        <ele>1146.5</ele>
        <time>2015-08-22T16:12:40.550Z</time>
      </trkpt>
      <trkpt lat="44.22466" lon="3.50496">
        <ele>1146.3</ele>
        <time>2015-08-22T16:12:41.491Z</time>
      </trkpt>
      <trkpt lat="44.22459" lon="3.50502">
        <ele>1144</ele>
        <time>2015-08-22T16:12:50.543Z</time>
      </trkpt>
      <trkpt lat="44.22458" lon="3.50502">
        <ele>1143.6</ele>
        <time>2015-08-22T16:12:51.520Z</time>
      </trkpt>
      <trkpt lat="44.2245" lon="3.50504">
        <ele>1141.4</ele>
        <time>2015-08-22T16:13:08.534Z</time>
      </trkpt>
      <trkpt lat="44.22449" lon="3.50504">
        <ele>1141.3</ele>
        <time>2015-08-22T16:13:09.493Z</time>
      </trkpt>
      <trkpt lat="44.2244" lon="3.50505">
        <ele>1140.1</ele>
        <time>2015-08-22T16:13:16.774Z</time>
      </trkpt>
      <trkpt lat="44.2244" lon="3.50505">
        <ele>1139.8</ele>
        <time>2015-08-22T16:13:17.493Z</time>
      </trkpt>
      <trkpt lat="44.22431" lon="3.5051">
        <ele>1139.1</ele>
        <time>2015-08-22T16:13:25.535Z</time>
      </trkpt>
      <trkpt lat="44.2243" lon="3.5051">
        <ele>1138.9</ele>
        <time>2015-08-22T16:13:26.493Z</time>
      </trkpt>
      <trkpt lat="44.22422" lon="3.50514">
        <ele>1138.4</ele>
        <time>2015-08-22T16:13:40.544Z</time>
      </trkpt>
      <trkpt lat="44.22422" lon="3.50515">
        <ele>1138.5</ele>
        <time>2015-08-22T16:13:41.492Z</time>
      </trkpt>
      <trkpt lat="44.22421" lon="3.50526">
        <ele>1138.6</ele>
        <time>2015-08-22T16:13:48.567Z</time>
      </trkpt>
      <trkpt lat="44.22421" lon="3.50528">
        <ele>1138.6</ele>
        <time>2015-08-22T16:13:49.507Z</time>
      </trkpt>
      <trkpt lat="44.22415" lon="3.50537">
        <ele>1138.4</ele>
        <time>2015-08-22T16:14:00.540Z</time>
      </trkpt>
      <trkpt lat="44.22415" lon="3.50538">
        <ele>1138.4</ele>
        <time>2015-08-22T16:14:01.496Z</time>
      </trkpt>
      <trkpt lat="44.22409" lon="3.50545">
        <ele>1138.1</ele>
        <time>2015-08-22T16:14:08.541Z</time>
      </trkpt>
      <trkpt lat="44.22407" lon="3.50546">
        <ele>1137.9</ele>
        <time>2015-08-22T16:14:09.495Z</time>
      </trkpt>
      <trkpt lat="44.22399" lon="3.50543">
        <ele>1136.5</ele>
        <time>2015-08-22T16:14:17.542Z</time>
      </trkpt>
      <trkpt lat="44.22398" lon="3.50543">
        <ele>1136.3</ele>
        <time>2015-08-22T16:14:18.495Z</time>
      </trkpt>
      <trkpt lat="44.2239" lon="3.50547">
        <ele>1135.6</ele>
        <time>2015-08-22T16:14:25.561Z</time>
      </trkpt>
      <trkpt lat="44.22389" lon="3.50547">
        <ele>1135.6</ele>
        <time>2015-08-22T16:14:26.531Z</time>
      </trkpt>
      <trkpt lat="44.22385" lon="3.50558">
        <ele>1136</ele>
        <time>2015-08-22T16:14:35.532Z</time>
      </trkpt>
      <trkpt lat="44.22384" lon="3.50558">
        <ele>1136.1</ele>
        <time>2015-08-22T16:14:36.498Z</time>
      </trkpt>
      <trkpt lat="44.22377" lon="3.50564">
        <ele>1136.9</ele>
        <time>2015-08-22T16:14:45.563Z</time>
      </trkpt>
      <trkpt lat="44.22376" lon="3.50565">
        <ele>1136.8</ele>
        <time>2015-08-22T16:14:46.518Z</time>
      </trkpt>
      <trkpt lat="44.22367" lon="3.50565">
        <ele>1137.1</ele>
        <time>2015-08-22T16:14:57.541Z</time>
      </trkpt>
      <trkpt lat="44.22367" lon="3.50565">
        <ele>1137.2</ele>
        <time>2015-08-22T16:14:58.509Z</time>
      </trkpt>
      <trkpt lat="44.22358" lon="3.50567">
        <ele>1137.9</ele>
        <time>2015-08-22T16:15:10.541Z</time>
      </trkpt>
      <trkpt lat="44.22357" lon="3.50568">
        <ele>1138.1</ele>
        <time>2015-08-22T16:15:11.489Z</time>
      </trkpt>
      <trkpt lat="44.22349" lon="3.50572">
        <ele>1138.8</ele>
        <time>2015-08-22T16:15:19.538Z</time>
      </trkpt>
      <trkpt lat="44.22348" lon="3.50573">
        <ele>1138.7</ele>
        <time>2015-08-22T16:15:20.493Z</time>
      </trkpt>
      <trkpt lat="44.22341" lon="3.50579">
        <ele>1138.7</ele>
        <time>2015-08-22T16:15:27.839Z</time>
      </trkpt>
      <trkpt lat="44.2234" lon="3.50579">
        <ele>1138.7</ele>
        <time>2015-08-22T16:15:28.493Z</time>
      </trkpt>
      <trkpt lat="44.22343" lon="3.50591">
        <ele>1138</ele>
        <time>2015-08-22T16:15:38.533Z</time>
      </trkpt>
      <trkpt lat="44.22344" lon="3.50591">
        <ele>1137.8</ele>
        <time>2015-08-22T16:15:39.492Z</time>
      </trkpt>
      <trkpt lat="44.22352" lon="3.50598">
        <ele>1136.6</ele>
        <time>2015-08-22T16:15:46.542Z</time>
      </trkpt>
      <trkpt lat="44.22353" lon="3.50599">
        <ele>1136.4</ele>
        <time>2015-08-22T16:15:47.494Z</time>
      </trkpt>
      <trkpt lat="44.22357" lon="3.50609">
        <ele>1133.7</ele>
        <time>2015-08-22T16:15:55.536Z</time>
      </trkpt>
      <trkpt lat="44.22357" lon="3.50611">
        <ele>1133.4</ele>
        <time>2015-08-22T16:15:56.497Z</time>
      </trkpt>
      <trkpt lat="44.2236" lon="3.50622">
        <ele>1125.7</ele>
        <time>2015-08-22T16:17:13.968Z</time>
      </trkpt>
      <trkpt lat="44.22361" lon="3.50623">
        <ele>1125.6</ele>
        <time>2015-08-22T16:17:14.494Z</time>
      </trkpt>
      <trkpt lat="44.22363" lon="3.50634">
        <ele>1124.5</ele>
        <time>2015-08-22T16:17:23.531Z</time>
      </trkpt>
      <trkpt lat="44.22363" lon="3.50636">
        <ele>1124.4</ele>
        <time>2015-08-22T16:17:24.491Z</time>
      </trkpt>
      <trkpt lat="44.22365" lon="3.50647">
        <ele>1123.8</ele>
        <time>2015-08-22T16:17:31.536Z</time>
      </trkpt>
      <trkpt lat="44.22366" lon="3.50648">
        <ele>1123.7</ele>
        <time>2015-08-22T16:17:32.503Z</time>
      </trkpt>
      <trkpt lat="44.22365" lon="3.5066">
        <ele>1123.2</ele>
        <time>2015-08-22T16:17:39.592Z</time>
      </trkpt>
      <trkpt lat="44.22366" lon="3.50662">
        <ele>1123</ele>
        <time>2015-08-22T16:17:40.495Z</time>
      </trkpt>
      <trkpt lat="44.22364" lon="3.50673">
        <ele>1121.9</ele>
        <time>2015-08-22T16:17:51.531Z</time>
      </trkpt>
      <trkpt lat="44.22364" lon="3.50675">
        <ele>1121.9</ele>
        <time>2015-08-22T16:17:52.498Z</time>
      </trkpt>
      <trkpt lat="44.22365" lon="3.50686">
        <ele>1121.7</ele>
        <time>2015-08-22T16:17:58.534Z</time>
      </trkpt>
      <trkpt lat="44.22365" lon="3.50688">
        <ele>1121.7</ele>
        <time>2015-08-22T16:17:59.867Z</time>
      </trkpt>
      <trkpt lat="44.22364" lon="3.507">
        <ele>1122.2</ele>
        <time>2015-08-22T16:18:09.542Z</time>
      </trkpt>
      <trkpt lat="44.22364" lon="3.50701">
        <ele>1122.2</ele>
        <time>2015-08-22T16:18:10.515Z</time>
      </trkpt>
      <trkpt lat="44.22366" lon="3.50713">
        <ele>1123.4</ele>
        <time>2015-08-22T16:18:26.560Z</time>
      </trkpt>
      <trkpt lat="44.22366" lon="3.50714">
        <ele>1123.4</ele>
        <time>2015-08-22T16:18:27.503Z</time>
      </trkpt>
      <trkpt lat="44.22365" lon="3.50725">
        <ele>1123.6</ele>
        <time>2015-08-22T16:18:34.549Z</time>
      </trkpt>
      <trkpt lat="44.22366" lon="3.50727">
        <ele>1123.6</ele>
        <time>2015-08-22T16:18:35.497Z</time>
      </trkpt>
      <trkpt lat="44.22366" lon="3.50739">
        <ele>1123.4</ele>
        <time>2015-08-22T16:18:42.562Z</time>
      </trkpt>
      <trkpt lat="44.22365" lon="3.50741">
        <ele>1123.3</ele>
        <time>2015-08-22T16:18:43.491Z</time>
      </trkpt>
      <trkpt lat="44.22363" lon="3.50751">
        <ele>1123</ele>
        <time>2015-08-22T16:18:49.545Z</time>
      </trkpt>
      <trkpt lat="44.22362" lon="3.50753">
        <ele>1122.9</ele>
        <time>2015-08-22T16:18:50.493Z</time>
      </trkpt>
      <trkpt lat="44.2236" lon="3.50764">
        <ele>1122.5</ele>
        <time>2015-08-22T16:18:56.632Z</time>
      </trkpt>
      <trkpt lat="44.2236" lon="3.50766">
        <ele>1122.4</ele>
        <time>2015-08-22T16:18:57.490Z</time>
      </trkpt>
      <trkpt lat="44.22359" lon="3.50777">
        <ele>1121.7</ele>
        <time>2015-08-22T16:19:03.590Z</time>
      </trkpt>
      <trkpt lat="44.22359" lon="3.50779">
        <ele>1121.6</ele>
        <time>2015-08-22T16:19:04.499Z</time>
      </trkpt>
      <trkpt lat="44.22359" lon="3.5079">
        <ele>1120.6</ele>
        <time>2015-08-22T16:19:10.560Z</time>
      </trkpt>
      <trkpt lat="44.22359" lon="3.50792">
        <ele>1120.5</ele>
        <time>2015-08-22T16:19:11.493Z</time>
      </trkpt>
      <trkpt lat="44.22356" lon="3.50803">
        <ele>1118.4</ele>
        <time>2015-08-22T16:19:36.535Z</time>
      </trkpt>
      <trkpt lat="44.22356" lon="3.50805">
        <ele>1118.4</ele>
        <time>2015-08-22T16:19:37.490Z</time>
      </trkpt>
      <trkpt lat="44.22353" lon="3.50815">
        <ele>1118</ele>
        <time>2015-08-22T16:19:43.549Z</time>
      </trkpt>
      <trkpt lat="44.22353" lon="3.50816">
        <ele>1117.9</ele>
        <time>2015-08-22T16:19:44.492Z</time>
      </trkpt>
      <trkpt lat="44.22354" lon="3.50828">
        <ele>1116.6</ele>
        <time>2015-08-22T16:19:52.573Z</time>
      </trkpt>
      <trkpt lat="44.22354" lon="3.50829">
        <ele>1116.6</ele>
        <time>2015-08-22T16:19:53.495Z</time>
      </trkpt>
      <trkpt lat="44.22357" lon="3.50841">
        <ele>1114.9</ele>
        <time>2015-08-22T16:20:07.596Z</time>
      </trkpt>
      <trkpt lat="44.22358" lon="3.50842">
        <ele>1114.7</ele>
        <time>2015-08-22T16:20:08.494Z</time>
      </trkpt>
      <trkpt lat="44.22365" lon="3.50849">
        <ele>1113.3</ele>
        <time>2015-08-22T16:20:16.984Z</time>
      </trkpt>
      <trkpt lat="44.22365" lon="3.5085">
        <ele>1113</ele>
        <time>2015-08-22T16:20:17.494Z</time>
      </trkpt>
      <trkpt lat="44.22372" lon="3.50858">
        <ele>1112.4</ele>
        <time>2015-08-22T16:20:23.558Z</time>
      </trkpt>
      <trkpt lat="44.22373" lon="3.50859">
        <ele>1112.3</ele>
        <time>2015-08-22T16:20:24.517Z</time>
      </trkpt>
      <trkpt lat="44.22378" lon="3.50867">
        <ele>1111.8</ele>
        <time>2015-08-22T16:20:31.558Z</time>
      </trkpt>
      <trkpt lat="44.22379" lon="3.50868">
        <ele>1111.7</ele>
        <time>2015-08-22T16:20:32.733Z</time>
      </trkpt>
      <trkpt lat="44.22384" lon="3.50879">
        <ele>1110.7</ele>
        <time>2015-08-22T16:20:39.534Z</time>
      </trkpt>
      <trkpt lat="44.22384" lon="3.5088">
        <ele>1110.6</ele>
        <time>2015-08-22T16:20:40.528Z</time>
      </trkpt>
      <trkpt lat="44.22385" lon="3.50891">
        <ele>1110.1</ele>
        <time>2015-08-22T16:20:46.553Z</time>
      </trkpt>
      <trkpt lat="44.22385" lon="3.50893">
        <ele>1110</ele>
        <time>2015-08-22T16:20:47.503Z</time>
      </trkpt>
      <trkpt lat="44.22387" lon="3.50905">
        <ele>1109.7</ele>
        <time>2015-08-22T16:20:53.539Z</time>
      </trkpt>
      <trkpt lat="44.22386" lon="3.50906">
        <ele>1109.7</ele>
        <time>2015-08-22T16:20:54.517Z</time>
      </trkpt>
      <trkpt lat="44.22383" lon="3.50916">
        <ele>1109.2</ele>
        <time>2015-08-22T16:21:01.562Z</time>
      </trkpt>
      <trkpt lat="44.22383" lon="3.50918">
        <ele>1109.2</ele>
        <time>2015-08-22T16:21:02.534Z</time>
      </trkpt>
      <trkpt lat="44.22383" lon="3.5093">
        <ele>1109.1</ele>
        <time>2015-08-22T16:21:10.537Z</time>
      </trkpt>
      <trkpt lat="44.22383" lon="3.50931">
        <ele>1109.1</ele>
        <time>2015-08-22T16:21:11.489Z</time>
      </trkpt>
      <trkpt lat="44.22383" lon="3.50942">
        <ele>1108.4</ele>
        <time>2015-08-22T16:21:18.561Z</time>
      </trkpt>
      <trkpt lat="44.22383" lon="3.50944">
        <ele>1108.3</ele>
        <time>2015-08-22T16:21:19.531Z</time>
      </trkpt>
      <trkpt lat="44.22382" lon="3.50956">
        <ele>1107.8</ele>
        <time>2015-08-22T16:21:26.551Z</time>
      </trkpt>
      <trkpt lat="44.22382" lon="3.50957">
        <ele>1107.6</ele>
        <time>2015-08-22T16:21:27.499Z</time>
      </trkpt>
      <trkpt lat="44.22381" lon="3.50968">
        <ele>1107</ele>
        <time>2015-08-22T16:21:33.545Z</time>
      </trkpt>
      <trkpt lat="44.22381" lon="3.5097">
        <ele>1106.9</ele>
        <time>2015-08-22T16:21:34.497Z</time>
      </trkpt>
      <trkpt lat="44.22388" lon="3.50976">
        <ele>1105.7</ele>
        <time>2015-08-22T16:22:03.556Z</time>
      </trkpt>
      <trkpt lat="44.22389" lon="3.50975">
        <ele>1105.7</ele>
        <time>2015-08-22T16:22:04.503Z</time>
      </trkpt>
      <trkpt lat="44.22396" lon="3.50983">
        <ele>1105</ele>
        <time>2015-08-22T16:22:16.542Z</time>
      </trkpt>
      <trkpt lat="44.22397" lon="3.50984">
        <ele>1104.9</ele>
        <time>2015-08-22T16:22:17.491Z</time>
      </trkpt>
      <trkpt lat="44.22404" lon="3.5099">
        <ele>1104.1</ele>
        <time>2015-08-22T16:22:24.563Z</time>
      </trkpt>
      <trkpt lat="44.22405" lon="3.50991">
        <ele>1104</ele>
        <time>2015-08-22T16:22:25.505Z</time>
      </trkpt>
      <trkpt lat="44.22413" lon="3.50994">
        <ele>1103.6</ele>
        <time>2015-08-22T16:22:31.542Z</time>
      </trkpt>
      <trkpt lat="44.22414" lon="3.50995">
        <ele>1103.5</ele>
        <time>2015-08-22T16:22:32.724Z</time>
      </trkpt>
      <trkpt lat="44.22421" lon="3.50998">
        <ele>1102.9</ele>
        <time>2015-08-22T16:22:38.541Z</time>
      </trkpt>
      <trkpt lat="44.22422" lon="3.50999">
        <ele>1102.8</ele>
        <time>2015-08-22T16:22:39.490Z</time>
      </trkpt>
      <trkpt lat="44.22428" lon="3.51008">
        <ele>1100.3</ele>
        <time>2015-08-22T16:22:53.541Z</time>
      </trkpt>
      <trkpt lat="44.22428" lon="3.5101">
        <ele>1100.2</ele>
        <time>2015-08-22T16:22:54.493Z</time>
      </trkpt>
      <trkpt lat="44.22433" lon="3.51019">
        <ele>1099.2</ele>
        <time>2015-08-22T16:23:00.544Z</time>
      </trkpt>
      <trkpt lat="44.22434" lon="3.51021">
        <ele>1099</ele>
        <time>2015-08-22T16:23:01.499Z</time>
      </trkpt>
      <trkpt lat="44.22441" lon="3.51027">
        <ele>1098.3</ele>
        <time>2015-08-22T16:23:07.577Z</time>
      </trkpt>
      <trkpt lat="44.22442" lon="3.51028">
        <ele>1098.1</ele>
        <time>2015-08-22T16:23:08.503Z</time>
      </trkpt>
      <trkpt lat="44.22448" lon="3.51036">
        <ele>1097</ele>
        <time>2015-08-22T16:23:14.566Z</time>
      </trkpt>
      <trkpt lat="44.22449" lon="3.51037">
        <ele>1096.9</ele>
        <time>2015-08-22T16:23:15.504Z</time>
      </trkpt>
      <trkpt lat="44.22456" lon="3.51043">
        <ele>1095.3</ele>
        <time>2015-08-22T16:23:22.561Z</time>
      </trkpt>
      <trkpt lat="44.22457" lon="3.51043">
        <ele>1095.2</ele>
        <time>2015-08-22T16:23:23.517Z</time>
      </trkpt>
      <trkpt lat="44.22465" lon="3.51048">
        <ele>1093.8</ele>
        <time>2015-08-22T16:23:38.532Z</time>
      </trkpt>
      <trkpt lat="44.22466" lon="3.5105">
        <ele>1093.6</ele>
        <time>2015-08-22T16:23:39.517Z</time>
      </trkpt>
      <trkpt lat="44.22471" lon="3.5106">
        <ele>1092.5</ele>
        <time>2015-08-22T16:23:45.576Z</time>
      </trkpt>
      <trkpt lat="44.22473" lon="3.5106">
        <ele>1092.4</ele>
        <time>2015-08-22T16:23:46.503Z</time>
      </trkpt>
      <trkpt lat="44.22479" lon="3.51067">
        <ele>1091.7</ele>
        <time>2015-08-22T16:23:51.547Z</time>
      </trkpt>
      <trkpt lat="44.22479" lon="3.51068">
        <ele>1091.5</ele>
        <time>2015-08-22T16:23:52.495Z</time>
      </trkpt>
      <trkpt lat="44.22483" lon="3.51079">
        <ele>1090.2</ele>
        <time>2015-08-22T16:23:58.551Z</time>
      </trkpt>
      <trkpt lat="44.22484" lon="3.51081">
        <ele>1089.9</ele>
        <time>2015-08-22T16:23:59.516Z</time>
      </trkpt>
      <trkpt lat="44.22488" lon="3.51089">
        <ele>1088.6</ele>
        <time>2015-08-22T16:24:04.545Z</time>
      </trkpt>
      <trkpt lat="44.22489" lon="3.51091">
        <ele>1088.4</ele>
        <time>2015-08-22T16:24:05.493Z</time>
      </trkpt>
      <trkpt lat="44.22493" lon="3.511">
        <ele>1087.5</ele>
        <time>2015-08-22T16:24:10.532Z</time>
      </trkpt>
      <trkpt lat="44.22494" lon="3.51101">
        <ele>1087.3</ele>
        <time>2015-08-22T16:24:11.491Z</time>
      </trkpt>
      <trkpt lat="44.225" lon="3.51109">
        <ele>1086.3</ele>
        <time>2015-08-22T16:24:17.577Z</time>
      </trkpt>
      <trkpt lat="44.22501" lon="3.5111">
        <ele>1086.5</ele>
        <time>2015-08-22T16:24:18.503Z</time>
      </trkpt>
      <trkpt lat="44.22509" lon="3.51116">
        <ele>1086.9</ele>
        <time>2015-08-22T16:24:25.593Z</time>
      </trkpt>
      <trkpt lat="44.22509" lon="3.51117">
        <ele>1087</ele>
        <time>2015-08-22T16:24:26.646Z</time>
      </trkpt>
      <trkpt lat="44.22516" lon="3.51125">
        <ele>1086.6</ele>
        <time>2015-08-22T16:24:34.539Z</time>
      </trkpt>
      <trkpt lat="44.22516" lon="3.51126">
        <ele>1086.5</ele>
        <time>2015-08-22T16:24:35.493Z</time>
      </trkpt>
      <trkpt lat="44.22521" lon="3.51136">
        <ele>1086.1</ele>
        <time>2015-08-22T16:24:42.543Z</time>
      </trkpt>
      <trkpt lat="44.22521" lon="3.51138">
        <ele>1086.1</ele>
        <time>2015-08-22T16:24:43.493Z</time>
      </trkpt>
      <trkpt lat="44.22525" lon="3.51148">
        <ele>1086.2</ele>
        <time>2015-08-22T16:24:49.550Z</time>
      </trkpt>
      <trkpt lat="44.22526" lon="3.5115">
        <ele>1086.2</ele>
        <time>2015-08-22T16:24:50.489Z</time>
      </trkpt>
      <trkpt lat="44.22526" lon="3.5116">
        <ele>1086.3</ele>
        <time>2015-08-22T16:24:55.551Z</time>
      </trkpt>
      <trkpt lat="44.22527" lon="3.51162">
        <ele>1086.3</ele>
        <time>2015-08-22T16:24:56.489Z</time>
      </trkpt>
      <trkpt lat="44.22528" lon="3.51173">
        <ele>1086.5</ele>
        <time>2015-08-22T16:25:02.542Z</time>
      </trkpt>
      <trkpt lat="44.22529" lon="3.51175">
        <ele>1086.6</ele>
        <time>2015-08-22T16:25:03.493Z</time>
      </trkpt>
      <trkpt lat="44.22532" lon="3.51186">
        <ele>1086.9</ele>
        <time>2015-08-22T16:25:09.538Z</time>
      </trkpt>
      <trkpt lat="44.22532" lon="3.51187">
        <ele>1086.9</ele>
        <time>2015-08-22T16:25:10.492Z</time>
      </trkpt>
      <trkpt lat="44.22536" lon="3.51197">
        <ele>1087.2</ele>
        <time>2015-08-22T16:25:16.541Z</time>
      </trkpt>
      <trkpt lat="44.22536" lon="3.51199">
        <ele>1087.3</ele>
        <time>2015-08-22T16:25:17.491Z</time>
      </trkpt>
      <trkpt lat="44.22537" lon="3.5121">
        <ele>1087.4</ele>
        <time>2015-08-22T16:25:23.548Z</time>
      </trkpt>
      <trkpt lat="44.22537" lon="3.51212">
        <ele>1087.4</ele>
        <time>2015-08-22T16:25:24.492Z</time>
      </trkpt>
      <trkpt lat="44.22539" lon="3.51222">
        <ele>1087.9</ele>
        <time>2015-08-22T16:25:30.544Z</time>
      </trkpt>
      <trkpt lat="44.2254" lon="3.51224">
        <ele>1088</ele>
        <time>2015-08-22T16:25:31.493Z</time>
      </trkpt>
      <trkpt lat="44.22541" lon="3.51236">
        <ele>1087.9</ele>
        <time>2015-08-22T16:25:37.548Z</time>
      </trkpt>
      <trkpt lat="44.22542" lon="3.51237">
        <ele>1088</ele>
        <time>2015-08-22T16:25:38.494Z</time>
      </trkpt>
      <trkpt lat="44.22545" lon="3.51248">
        <ele>1088.9</ele>
        <time>2015-08-22T16:25:44.546Z</time>
      </trkpt>
      <trkpt lat="44.22546" lon="3.51249">
        <ele>1089</ele>
        <time>2015-08-22T16:25:45.495Z</time>
      </trkpt>
      <trkpt lat="44.22551" lon="3.51257">
        <ele>1089.7</ele>
        <time>2015-08-22T16:25:50.533Z</time>
      </trkpt>
      <trkpt lat="44.22552" lon="3.51259">
        <ele>1089.8</ele>
        <time>2015-08-22T16:25:51.495Z</time>
      </trkpt>
      <trkpt lat="44.22559" lon="3.51266">
        <ele>1091</ele>
        <time>2015-08-22T16:25:57.543Z</time>
      </trkpt>
      <trkpt lat="44.2256" lon="3.51268">
        <ele>1091.1</ele>
        <time>2015-08-22T16:25:58.503Z</time>
      </trkpt>
      <trkpt lat="44.22565" lon="3.51276">
        <ele>1091.8</ele>
        <time>2015-08-22T16:26:04.600Z</time>
      </trkpt>
      <trkpt lat="44.22566" lon="3.51278">
        <ele>1092</ele>
        <time>2015-08-22T16:26:05.492Z</time>
      </trkpt>
      <trkpt lat="44.2257" lon="3.51289">
        <ele>1092.2</ele>
        <time>2015-08-22T16:26:11.532Z</time>
      </trkpt>
      <trkpt lat="44.22571" lon="3.5129">
        <ele>1092.3</ele>
        <time>2015-08-22T16:26:12.495Z</time>
      </trkpt>
      <trkpt lat="44.22571" lon="3.51301">
        <ele>1092.3</ele>
        <time>2015-08-22T16:26:18.572Z</time>
      </trkpt>
      <trkpt lat="44.2257" lon="3.51303">
        <ele>1092.3</ele>
        <time>2015-08-22T16:26:19.518Z</time>
      </trkpt>
      <trkpt lat="44.22568" lon="3.51312">
        <ele>1092.9</ele>
        <time>2015-08-22T16:26:24.593Z</time>
      </trkpt>
      <trkpt lat="44.22567" lon="3.51315">
        <ele>1093</ele>
        <time>2015-08-22T16:26:25.499Z</time>
      </trkpt>
      <trkpt lat="44.22569" lon="3.51326">
        <ele>1093.9</ele>
        <time>2015-08-22T16:26:31.542Z</time>
      </trkpt>
      <trkpt lat="44.22569" lon="3.51327">
        <ele>1094.1</ele>
        <time>2015-08-22T16:26:32.494Z</time>
      </trkpt>
      <trkpt lat="44.22567" lon="3.51338">
        <ele>1095.5</ele>
        <time>2015-08-22T16:26:39.533Z</time>
      </trkpt>
      <trkpt lat="44.22567" lon="3.5134">
        <ele>1095.7</ele>
        <time>2015-08-22T16:26:40.492Z</time>
      </trkpt>
      <trkpt lat="44.22567" lon="3.51352">
        <ele>1096.7</ele>
        <time>2015-08-22T16:26:46.538Z</time>
      </trkpt>
      <trkpt lat="44.22567" lon="3.51354">
        <ele>1096.8</ele>
        <time>2015-08-22T16:26:47.492Z</time>
      </trkpt>
      <trkpt lat="44.22572" lon="3.51364">
        <ele>1098.1</ele>
        <time>2015-08-22T16:26:54.534Z</time>
      </trkpt>
      <trkpt lat="44.22572" lon="3.51365">
        <ele>1098.3</ele>
        <time>2015-08-22T16:26:55.500Z</time>
      </trkpt>
      <trkpt lat="44.22577" lon="3.51374">
        <ele>1096.8</ele>
        <time>2015-08-22T16:27:01.533Z</time>
      </trkpt>
      <trkpt lat="44.22578" lon="3.51375">
        <ele>1095.9</ele>
        <time>2015-08-22T16:27:02.503Z</time>
      </trkpt>
      <trkpt lat="44.22586" lon="3.5138">
        <ele>1092.9</ele>
        <time>2015-08-22T16:27:08.557Z</time>
      </trkpt>
      <trkpt lat="44.22587" lon="3.5138">
        <ele>1092.6</ele>
        <time>2015-08-22T16:27:09.500Z</time>
      </trkpt>
      <trkpt lat="44.22589" lon="3.51381">
        <ele>1091.6</ele>
        <time>2015-08-22T16:27:44.586Z</time>
      </trkpt>
    </trkseg>
  </trk>
</gpx>